Observation data for Amarillo 15 North Northwest on 05/25/2019      Previous  Date  Next       Current Mesonet Observations  Soil Data  Daily Summary Page  Observations in Plain Language
KAM3 250500Z 17013KT 18/16 A2992 RMK A01 T01780156  RH  087%=      5-min Rain = 0
KAM3 250501Z 17011KT 18/16 A2993 RMK A01 T01780155  RH  087%=      5-min Rain = 0
KAM3 250502Z 17012KT 18/16 A2993 RMK A01 T01780156  RH  087%=      5-min Rain = 0
KAM3 250503Z 18013KT 18/16 A2992 RMK A01 T01780156  RH  087%=      5-min Rain = 0
KAM3 250504Z 17011KT 18/16 A2992 RMK A01 T01780155  RH  086%=      5-min Rain = 0
KAM3 250505Z 18011KT 18/16 A2992 RMK A01 T01790155  RH  086%=      5-min Rain = 0
KAM3 250506Z 17011KT 18/16 A2993 RMK A01 T01780155  RH  086%=      5-min Rain = 0
KAM3 250507Z 17012KT 18/16 A2993 RMK A01 T01790155  RH  086%=      5-min Rain = 0
KAM3 250508Z 17013KT 18/15 A2993 RMK A01 T01790154  RH  086%=      5-min Rain = 0
KAM3 250509Z 17011KT 18/15 A2993 RMK A01 T01790154  RH  085%=      5-min Rain = 0
KAM3 250510Z 18010KT 18/15 A2993 RMK A01 T01790154  RH  085%=      5-min Rain = 0
KAM3 250511Z 17010KT 18/16 A2993 RMK A01 T01790155  RH  085%=      5-min Rain = 0
KAM3 250512Z 17010KT 18/16 A2993 RMK A01 T01790155  RH  086%=      5-min Rain = 0
KAM3 250513Z 17010KT 18/15 A2993 RMK A01 T01780154  RH  086%=      5-min Rain = 0
KAM3 250514Z 16011KT 18/16 A2993 RMK A01 T01780155  RH  086%=      5-min Rain = 0
KAM3 250515Z 16010KT 18/16 A2994 RMK A01 T01780155  RH  086%=      5-min Rain = 0
KAM3 250516Z 16011KT 18/16 A2994 RMK A01 T01770155  RH  087%=      5-min Rain = 0
KAM3 250517Z 16011KT 18/16 A2994 RMK A01 T01760155  RH  087%=      5-min Rain = 0
KAM3 250518Z 16011KT 18/16 A2994 RMK A01 T01760156  RH  088%=      5-min Rain = 0
KAM3 250519Z 16011KT 18/16 A2994 RMK A01 T01760155  RH  088%=      5-min Rain = 0
KAM3 250520Z 16011KT 18/16 A2994 RMK A01 T01760155  RH  087%=      5-min Rain = 0
KAM3 250521Z 16011KT 18/16 A2994 RMK A01 T01760155  RH  087%=      5-min Rain = 0
KAM3 250522Z 16012KT 18/16 A2994 RMK A01 T01760155  RH  087%=      5-min Rain = 0
KAM3 250523Z 16011KT 18/16 A2994 RMK A01 T01760155  RH  087%=      5-min Rain = 0
KAM3 250524Z 16012KT 18/15 A2994 RMK A01 T01760154  RH  087%=      5-min Rain = 0
KAM3 250525Z 16011KT 18/15 A2994 RMK A01 T01770154  RH  086%=      5-min Rain = 0
KAM3 250526Z 16010KT 18/15 A2994 RMK A01 T01780154  RH  086%=      5-min Rain = 0
KAM3 250527Z 16011KT 18/15 A2994 RMK A01 T01770154  RH  086%=      5-min Rain = 0
KAM3 250528Z 16010KT 18/15 A2994 RMK A01 T01780153  RH  086%=      5-min Rain = 0
KAM3 250529Z 16010KT 18/15 A2994 RMK A01 T01780153  RH  085%=      5-min Rain = 0
KAM3 250530Z 16011KT 18/15 A2993 RMK A01 T01780153  RH  085%=      5-min Rain = 0
KAM3 250531Z 16011KT 18/15 A2994 RMK A01 T01790152  RH  085%=      5-min Rain = 0
KAM3 250532Z 16010KT 18/15 A2994 RMK A01 T01790152  RH  084%=      5-min Rain = 0
KAM3 250533Z 16009KT 18/15 A2994 RMK A01 T01800152  RH  084%=      5-min Rain = 0
KAM3 250534Z 16010KT 18/15 A2994 RMK A01 T01800152  RH  084%=      5-min Rain = 0
KAM3 250535Z 16008KT 18/15 A2994 RMK A01 T01800152  RH  084%=      5-min Rain = 0
KAM3 250536Z 16010KT 18/15 A2994 RMK A01 T01790152  RH  084%=      5-min Rain = 0
KAM3 250537Z 16011KT 18/15 A2994 RMK A01 T01780151  RH  084%=      5-min Rain = 0
KAM3 250538Z 16010KT 18/15 A2994 RMK A01 T01790151  RH  084%=      5-min Rain = 0
KAM3 250539Z 16011KT 18/15 A2994 RMK A01 T01780150  RH  083%=      5-min Rain = 0
KAM3 250540Z 16011KT 18/15 A2994 RMK A01 T01800149  RH  082%=      5-min Rain = 0
KAM3 250541Z 15011KT 18/15 A2994 RMK A01 T01800148  RH  082%=      5-min Rain = 0
KAM3 250542Z 15011KT 18/15 A2994 RMK A01 T01810148  RH  081%=      5-min Rain = 0
KAM3 250543Z 15011KT 18/15 A2994 RMK A01 T01810148  RH  081%=      5-min Rain = 0
KAM3 250544Z 15011G16KT 18/15 A2994 RMK A01 T01810147  RH  080%=      5-min Rain = 0
KAM3 250545Z 15010KT 18/15 A2994 RMK A01 T01820147  RH  080%=      5-min Rain = 0
KAM3 250546Z 15011KT 18/15 A2994 RMK A01 T01820147  RH  080%=      5-min Rain = 0
KAM3 250547Z 15011KT 18/15 A2994 RMK A01 T01820146  RH  080%=      5-min Rain = 0
KAM3 250548Z 15010KT 18/15 A2994 RMK A01 T01820146  RH  080%=      5-min Rain = 0
KAM3 250549Z 15009KT 18/15 A2994 RMK A01 T01820146  RH  080%=      5-min Rain = 0
KAM3 250550Z 15009KT 18/15 A2994 RMK A01 T01810146  RH  080%=      5-min Rain = 0
KAM3 250551Z 15009KT 18/15 A2994 RMK A01 T01800146  RH  080%=      5-min Rain = 0
KAM3 250552Z 15008KT 18/15 A2994 RMK A01 T01800147  RH  081%=      5-min Rain = 0
KAM3 250553Z 15009KT 18/15 A2994 RMK A01 T01800146  RH  081%=      5-min Rain = 0
KAM3 250554Z 15010KT 18/15 A2994 RMK A01 T01800146  RH  081%=      5-min Rain = 0
KAM3 250555Z 15009KT 18/15 A2994 RMK A01 T01800146  RH  080%=      5-min Rain = 0
KAM3 250556Z 15007KT 18/15 A2994 RMK A01 T01800146  RH  080%=      5-min Rain = 0
KAM3 250557Z 15009KT 18/15 A2994 RMK A01 T01790146  RH  081%=      5-min Rain = 0
KAM3 250558Z 15009KT 18/15 A2994 RMK A01 T01790146  RH  081%=      5-min Rain = 0
KAM3 250559Z 15009KT 18/15 A2994 RMK A01 T01790146  RH  081%=      5-min Rain = 0
KAM3 250600Z 15008KT 18/15 A2994 RMK A01 T01790146  RH  081%=      5-min Rain = 0
KAM3 250601Z 15008KT 18/15 A2994 RMK A01 T01790146  RH  081%=      5-min Rain = 0
KAM3 250602Z 14008KT 18/15 A2994 RMK A01 T01780146  RH  082%=      5-min Rain = 0
KAM3 250603Z 15007KT 18/15 A2994 RMK A01 T01770147  RH  082%=      5-min Rain = 0
KAM3 250604Z 15008KT 18/15 A2994 RMK A01 T01770147  RH  083%=      5-min Rain = 0
KAM3 250605Z 14008KT 18/15 A2994 RMK A01 T01760147  RH  083%=      5-min Rain = 0
KAM3 250606Z 14009KT 18/15 A2994 RMK A01 T01760148  RH  084%=      5-min Rain = 0
KAM3 250607Z 14009KT 18/15 A2994 RMK A01 T01750148  RH  084%=      5-min Rain = 0
KAM3 250608Z 14010KT 18/15 A2994 RMK A01 T01750149  RH  085%=      5-min Rain = 0
KAM3 250609Z 14010KT 17/15 A2994 RMK A01 T01740149  RH  085%=      5-min Rain = 0
KAM3 250610Z 15010KT 17/15 A2994 RMK A01 T01740149  RH  085%=      5-min Rain = 0
KAM3 250611Z 15010KT 17/15 A2994 RMK A01 T01730149  RH  085%=      5-min Rain = 0
KAM3 250612Z 15010KT 17/15 A2994 RMK A01 T01740149  RH  086%=      5-min Rain = 0
KAM3 250613Z 15010KT 17/15 A2994 RMK A01 T01730149  RH  086%=      5-min Rain = 0
KAM3 250614Z 15010KT 17/15 A2994 RMK A01 T01730148  RH  085%=      5-min Rain = 0
KAM3 250615Z 16011KT 17/15 A2994 RMK A01 T01730148  RH  085%=      5-min Rain = 0
KAM3 250616Z 16010KT 17/15 A2994 RMK A01 T01730148  RH  085%=      5-min Rain = 0
KAM3 250617Z 16010KT 17/15 A2994 RMK A01 T01720148  RH  085%=      5-min Rain = 0
KAM3 250618Z 16011KT 17/15 A2994 RMK A01 T01720148  RH  086%=      5-min Rain = 0
KAM3 250619Z 16011KT 17/15 A2994 RMK A01 T01720147  RH  085%=      5-min Rain = 0
KAM3 250620Z 16010KT 17/15 A2994 RMK A01 T01720147  RH  085%=      5-min Rain = 0
KAM3 250621Z 16011KT 17/15 A2994 RMK A01 T01720146  RH  085%=      5-min Rain = 0
KAM3 250622Z 16009KT 17/15 A2994 RMK A01 T01720146  RH  084%=      5-min Rain = 0
KAM3 250623Z 17011KT 17/15 A2994 RMK A01 T01720145  RH  084%=      5-min Rain = 0
KAM3 250624Z 17011KT 17/15 A2994 RMK A01 T01720145  RH  084%=      5-min Rain = 0
KAM3 250625Z 17011KT 17/14 A2994 RMK A01 T01720144  RH  083%=      5-min Rain = 0
KAM3 250626Z 17011KT 17/14 A2994 RMK A01 T01730143  RH  082%=      5-min Rain = 0
KAM3 250627Z 17011KT 17/14 A2994 RMK A01 T01740143  RH  082%=      5-min Rain = 0
KAM3 250628Z 17010KT 17/14 A2994 RMK A01 T01730143  RH  082%=      5-min Rain = 0
KAM3 250629Z 17010KT 17/14 A2994 RMK A01 T01730143  RH  082%=      5-min Rain = 0
KAM3 250630Z 16010KT 17/14 A2994 RMK A01 T01730143  RH  082%=      5-min Rain = 0
KAM3 250631Z 16009KT 17/14 A2994 RMK A01 T01730143  RH  082%=      5-min Rain = 0
KAM3 250632Z 16009KT 17/14 A2995 RMK A01 T01730143  RH  082%=      5-min Rain = 0
KAM3 250633Z 17009KT 17/14 A2995 RMK A01 T01730143  RH  083%=      5-min Rain = 0
KAM3 250634Z 17009KT 17/14 A2995 RMK A01 T01720143  RH  083%=      5-min Rain = 0
KAM3 250635Z 17009KT 17/14 A2995 RMK A01 T01720143  RH  083%=      5-min Rain = 0
KAM3 250636Z 17009KT 17/14 A2995 RMK A01 T01710143  RH  083%=      5-min Rain = 0
KAM3 250637Z 16010KT 17/14 A2995 RMK A01 T01710142  RH  083%=      5-min Rain = 0
KAM3 250638Z 16009KT 17/14 A2995 RMK A01 T01710141  RH  083%=      5-min Rain = 0
KAM3 250639Z 16010KT 17/14 A2995 RMK A01 T01710142  RH  083%=      5-min Rain = 0
KAM3 250640Z 15010KT 17/14 A2994 RMK A01 T01710141  RH  082%=      5-min Rain = 0
KAM3 250641Z 16010KT 17/14 A2994 RMK A01 T01720140  RH  082%=      5-min Rain = 0
KAM3 250642Z 15010KT 17/14 A2994 RMK A01 T01720140  RH  082%=      5-min Rain = 0
KAM3 250643Z 16010KT 17/14 A2994 RMK A01 T01720140  RH  082%=      5-min Rain = 0
KAM3 250644Z 16009KT 17/14 A2994 RMK A01 T01720140  RH  082%=      5-min Rain = 0
KAM3 250645Z 15009KT 17/14 A2994 RMK A01 T01720140  RH  082%=      5-min Rain = 0
KAM3 250646Z 15009KT 17/14 A2994 RMK A01 T01710140  RH  082%=      5-min Rain = 0
KAM3 250647Z 15009KT 17/14 A2994 RMK A01 T01710140  RH  082%=      5-min Rain = 0
KAM3 250648Z 15009KT 17/14 A2994 RMK A01 T01700140  RH  083%=      5-min Rain = 0
KAM3 250649Z 15009KT 17/14 A2994 RMK A01 T01700140  RH  083%=      5-min Rain = 0
KAM3 250650Z 15009KT 17/14 A2994 RMK A01 T01690140  RH  083%=      5-min Rain = 0
KAM3 250651Z 14010KT 17/14 A2994 RMK A01 T01680140  RH  083%=      5-min Rain = 0
KAM3 250652Z 14010KT 17/14 A2994 RMK A01 T01680140  RH  083%=      5-min Rain = 0
KAM3 250653Z 15010KT 17/14 A2994 RMK A01 T01680139  RH  083%=      5-min Rain = 0
KAM3 250654Z 15011KT 17/14 A2994 RMK A01 T01690139  RH  082%=      5-min Rain = 0
KAM3 250655Z 15010KT 17/14 A2994 RMK A01 T01690139  RH  082%=      5-min Rain = 0
KAM3 250656Z 15011KT 17/14 A2994 RMK A01 T01690140  RH  083%=      5-min Rain = 0
KAM3 250657Z 15011KT 17/14 A2994 RMK A01 T01700139  RH  082%=      5-min Rain = 0
KAM3 250658Z 15010KT 17/14 A2994 RMK A01 T01710140  RH  082%=      5-min Rain = 0
KAM3 250659Z 15009KT 17/14 A2994 RMK A01 T01710140  RH  082%=      5-min Rain = 0
KAM3 250700Z 15010KT 17/14 A2994 RMK A01 T01710140  RH  082%=      5-min Rain = 0
KAM3 250701Z 15011KT 17/14 A2994 RMK A01 T01710140  RH  082%=      5-min Rain = 0
KAM3 250702Z 15010KT 17/14 A2994 RMK A01 T01710140  RH  082%=      5-min Rain = 0
KAM3 250703Z 14011KT 17/14 A2994 RMK A01 T01710140  RH  082%=      5-min Rain = 0
KAM3 250704Z 15011KT 17/14 A2994 RMK A01 T01710140  RH  082%=      5-min Rain = 0
KAM3 250705Z 15010KT 17/14 A2993 RMK A01 T01720139  RH  081%=      5-min Rain = 0
KAM3 250706Z 15013KT 17/14 A2993 RMK A01 T01720139  RH  081%=      5-min Rain = 0
KAM3 250707Z 15012KT 17/14 A2993 RMK A01 T01730138  RH  080%=      5-min Rain = 0
KAM3 250708Z 15011KT 17/14 A2993 RMK A01 T01740139  RH  080%=      5-min Rain = 0
KAM3 250709Z 16012KT 17/14 A2993 RMK A01 T01740139  RH  080%=      5-min Rain = 0
KAM3 250710Z 15012KT 17/14 A2993 RMK A01 T01740139  RH  080%=      5-min Rain = 0
KAM3 250711Z 15012KT 17/14 A2993 RMK A01 T01740139  RH  080%=      5-min Rain = 0
KAM3 250712Z 15013KT 17/14 A2993 RMK A01 T01740139  RH  080%=      5-min Rain = 0
KAM3 250713Z 15012KT 18/14 A2993 RMK A01 T01750138  RH  079%=      5-min Rain = 0
KAM3 250714Z 16014KT 18/14 A2993 RMK A01 T01750138  RH  079%=      5-min Rain = 0
KAM3 250715Z 16013KT 18/14 A2993 RMK A01 T01760138  RH  078%=      5-min Rain = 0
KAM3 250716Z 15014KT 18/14 A2993 RMK A01 T01760138  RH  078%=      5-min Rain = 0
KAM3 250717Z 16014KT 18/14 A2993 RMK A01 T01770138  RH  078%=      5-min Rain = 0
KAM3 250718Z 16016KT 18/14 A2993 RMK A01 T01770138  RH  078%=      5-min Rain = 0
KAM3 250719Z 16013KT 18/14 A2993 RMK A01 T01770139  RH  078%=      5-min Rain = 0
KAM3 250720Z 16014KT 18/14 A2993 RMK A01 T01780139  RH  078%=      5-min Rain = 0
KAM3 250721Z 16014KT 18/14 A2993 RMK A01 T01780139  RH  078%=      5-min Rain = 0
KAM3 250722Z 16014KT 18/14 A2993 RMK A01 T01780140  RH  078%=      5-min Rain = 0
KAM3 250723Z 16014KT 18/14 A2993 RMK A01 T01780140  RH  079%=      5-min Rain = 0
KAM3 250724Z 16013KT 18/14 A2993 RMK A01 T01780141  RH  079%=      5-min Rain = 0
KAM3 250725Z 16015KT 18/14 A2993 RMK A01 T01780141  RH  079%=      5-min Rain = 0
KAM3 250726Z 16013KT 18/14 A2993 RMK A01 T01780143  RH  080%=      5-min Rain = 0
KAM3 250727Z 16014KT 18/14 A2993 RMK A01 T01790144  RH  080%=      5-min Rain = 0
KAM3 250728Z 16016G21KT 18/15 A2993 RMK A01 T01800145  RH  080%=      5-min Rain = 0
KAM3 250729Z 16016KT 18/15 A2993 RMK A01 T01810146  RH  080%=      5-min Rain = 0
KAM3 250730Z 16013KT 18/15 A2993 RMK A01 T01820146  RH  080%=      5-min Rain = 0
KAM3 250731Z 16014G19KT 18/15 A2993 RMK A01 T01820147  RH  080%=      5-min Rain = 0
KAM3 250732Z 16014KT 18/15 A2993 RMK A01 T01820148  RH  081%=      5-min Rain = 0
KAM3 250733Z 16014KT 18/15 A2993 RMK A01 T01820149  RH  081%=      5-min Rain = 0
KAM3 250734Z 15014KT 18/15 A2993 RMK A01 T01820150  RH  082%=      5-min Rain = 0
KAM3 250735Z 15013G18KT 18/15 A2992 RMK A01 T01820151  RH  082%=      5-min Rain = 0
KAM3 250736Z 16012KT 18/15 A2993 RMK A01 T01820152  RH  083%=      5-min Rain = 0
KAM3 250737Z 16013G19KT 18/15 A2993 RMK A01 T01820154  RH  084%=      5-min Rain = 0
KAM3 250738Z 16013KT 18/16 A2993 RMK A01 T01820155  RH  084%=      5-min Rain = 0
KAM3 250739Z 16016KT 18/16 A2993 RMK A01 T01820155  RH  085%=      5-min Rain = 0
KAM3 250740Z 16015KT 18/16 A2992 RMK A01 T01830156  RH  084%=      5-min Rain = 0
KAM3 250741Z 16015G21KT 18/16 A2993 RMK A01 T01830156  RH  084%=      5-min Rain = 0
KAM3 250742Z 16014KT 18/16 A2992 RMK A01 T01840157  RH  084%=      5-min Rain = 0
KAM3 250743Z 16013G18KT 18/16 A2993 RMK A01 T01840157  RH  084%=      5-min Rain = 0
KAM3 250744Z 16012KT 18/16 A2993 RMK A01 T01840159  RH  085%=      5-min Rain = 0
KAM3 250745Z 16013KT 18/16 A2993 RMK A01 T01830160  RH  086%=      5-min Rain = 0
KAM3 250746Z 16014KT 18/16 A2992 RMK A01 T01840162  RH  087%=      5-min Rain = 0
KAM3 250747Z 17016KT 18/16 A2992 RMK A01 T01840164  RH  088%=      5-min Rain = 0
KAM3 250748Z 16013KT 19/17 A2992 RMK A01 T01850165  RH  088%=      5-min Rain = 0
KAM3 250749Z 16013KT 19/17 A2992 RMK A01 T01860166  RH  088%=      5-min Rain = 0
KAM3 250750Z 16014G20KT 19/17 A2992 RMK A01 T01860168  RH  089%=      5-min Rain = 0
KAM3 250751Z 16017G22KT 19/17 A2992 RMK A01 T01870171  RH  090%=      5-min Rain = 0
KAM3 250752Z 16015KT 19/17 A2992 RMK A01 T01890171  RH  089%=      5-min Rain = 0
KAM3 250753Z 16017KT 19/17 A2992 RMK A01 T01890171  RH  089%=      5-min Rain = 0
KAM3 250754Z 16016KT 19/17 A2992 RMK A01 T01900172  RH  089%=      5-min Rain = 0
KAM3 250755Z 16016KT 19/17 A2992 RMK A01 T01900172  RH  089%=      5-min Rain = 0
KAM3 250756Z 16013KT 19/17 A2992 RMK A01 T01900172  RH  089%=      5-min Rain = 0
KAM3 250757Z 16016KT 19/17 A2992 RMK A01 T01910173  RH  090%=      5-min Rain = 0
KAM3 250758Z 16014G19KT 19/17 A2992 RMK A01 T01900174  RH  090%=      5-min Rain = 0
KAM3 250759Z 15015G20KT 19/17 A2992 RMK A01 T01900174  RH  090%=      5-min Rain = 0
KAM3 250800Z 16014KT 19/17 A2992 RMK A01 T01910174  RH  090%=      5-min Rain = 0
KAM3 250801Z 16015KT 19/18 A2992 RMK A01 T01910175  RH  090%=      5-min Rain = 0
KAM3 250802Z 17016G21KT 19/18 A2992 RMK A01 T01910175  RH  090%=      5-min Rain = 0
KAM3 250803Z 17018G23KT 19/18 A2992 RMK A01 T01920176  RH  091%=      5-min Rain = 0
KAM3 250804Z 17013KT 19/18 A2992 RMK A01 T01920177  RH  091%=      5-min Rain = 0
KAM3 250805Z 17016KT 19/18 A2992 RMK A01 T01930178  RH  091%=      5-min Rain = 0
KAM3 250806Z 17020G25KT 19/18 A2992 RMK A01 T01930179  RH  092%=      5-min Rain = 0
KAM3 250807Z 17017G22KT 19/18 A2992 RMK A01 T01940180  RH  092%=      5-min Rain = 0
KAM3 250808Z 16016G23KT 19/18 A2992 RMK A01 T01940180  RH  092%=      5-min Rain = 0
KAM3 250809Z 16019KT 19/18 A2992 RMK A01 T01940181  RH  092%=      5-min Rain = 0
KAM3 250810Z 17017G22KT 20/18 A2992 RMK A01 T01950180  RH  091%=      5-min Rain = 0
KAM3 250811Z 16017G22KT 20/18 A2992 RMK A01 T01950180  RH  091%=      5-min Rain = 0
KAM3 250812Z 17017KT 20/18 A2992 RMK A01 T01950180  RH  091%=      5-min Rain = 0
KAM3 250813Z 16015G22KT 20/18 A2992 RMK A01 T01950180  RH  091%=      5-min Rain = 0
KAM3 250814Z 17018KT 20/18 A2992 RMK A01 T01950180  RH  091%=      5-min Rain = 0
KAM3 250815Z 17017KT 19/18 A2992 RMK A01 T01940180  RH  091%=      5-min Rain = 0
KAM3 250816Z 16018KT 20/18 A2992 RMK A01 T01950180  RH  091%=      5-min Rain = 0
KAM3 250817Z 16015KT 19/18 A2992 RMK A01 T01940180  RH  091%=      5-min Rain = 0
KAM3 250818Z 17017KT 19/18 A2992 RMK A01 T01940181  RH  092%=      5-min Rain = 0
KAM3 250819Z 17017KT 19/18 A2992 RMK A01 T01940181  RH  093%=      5-min Rain = 0
KAM3 250820Z 17017KT 19/18 A2992 RMK A01 T01930182  RH  093%=      5-min Rain = 0
KAM3 250821Z 17016KT 19/18 A2992 RMK A01 T01940182  RH  093%=      5-min Rain = 0
KAM3 250822Z 17015G21KT 19/18 A2992 RMK A01 T01940183  RH  093%=      5-min Rain = 0
KAM3 250823Z 17015G20KT 19/18 A2992 RMK A01 T01930183  RH  094%=      5-min Rain = 0
KAM3 250824Z 17018KT 19/18 A2992 RMK A01 T01930184  RH  095%=      5-min Rain = 0
KAM3 250825Z 16015G21KT 19/18 A2992 RMK A01 T01930184  RH  095%=      5-min Rain = 0
KAM3 250826Z 17015KT 19/19 A2992 RMK A01 T01920185  RH  096%=      5-min Rain = 0
KAM3 250827Z 17015G20KT 19/19 A2992 RMK A01 T01920186  RH  096%=      5-min Rain = 0
KAM3 250828Z 16016KT 19/19 A2992 RMK A01 T01910186  RH  097%=      5-min Rain = 0
KAM3 250829Z 17015KT 19/19 A2992 RMK A01 T01910186  RH  097%=      5-min Rain = 0
KAM3 250830Z 17016KT 19/19 A2992 RMK A01 T01910186  RH  097%=      5-min Rain = 0
KAM3 250831Z 17014KT 19/19 A2992 RMK A01 T01910186  RH  097%=      5-min Rain = 0
KAM3 250832Z 16013KT 19/19 A2992 RMK A01 T01910187  RH  098%=      5-min Rain = 0
KAM3 250833Z 16014KT 19/19 A2992 RMK A01 T01900188  RH  098%=      5-min Rain = 0
KAM3 250834Z 17014KT 19/19 A2992 RMK A01 T01900188  RH  099%=      5-min Rain = 0
KAM3 250835Z 16014KT 19/19 A2992 RMK A01 T01900189  RH  099%=      5-min Rain = 0
KAM3 250836Z 16016KT 19/19 A2992 RMK A01 T01890190  RH  100%=      5-min Rain = 0
KAM3 250837Z 16019KT 19/19 A2992 RMK A01 T01890189  RH  100%=      5-min Rain = 0
KAM3 250838Z 16015KT 19/19 A2992 RMK A01 T01900190  RH  100%=      5-min Rain = 0
KAM3 250839Z 16016KT 19/19 A2992 RMK A01 T01890190  RH  100%=      5-min Rain = 0
KAM3 250840Z 17015KT 19/19 A2992 RMK A01 T01890190  RH  100%=      5-min Rain = 0
KAM3 250841Z 16015KT 19/19 A2992 RMK A01 T01900190  RH  100%=      5-min Rain = 0
KAM3 250842Z 16016KT 19/19 A2992 RMK A01 T01900190  RH  100%=      5-min Rain = 0
KAM3 250843Z 16014KT 19/19 A2992 RMK A01 T01900190  RH  100%=      5-min Rain = 0
KAM3 250844Z 16017KT 19/19 A2992 RMK A01 T01890189  RH  100%=      5-min Rain = 0
KAM3 250845Z 16016KT 19/19 A2991 RMK A01 T01890189  RH  100%=      5-min Rain = 0
KAM3 250846Z 16017KT 19/19 A2991 RMK A01 T01890189  RH  100%=      5-min Rain = 0
KAM3 250847Z 16018G23KT 19/19 A2991 RMK A01 T01900190  RH  100%=      5-min Rain = 0
KAM3 250848Z 16014G20KT 19/19 A2991 RMK A01 T01900190  RH  100%=      5-min Rain = 0
KAM3 250849Z 16017KT 19/19 A2991 RMK A01 T01900190  RH  100%=      5-min Rain = 0
KAM3 250850Z 16016KT 19/19 A2991 RMK A01 T01900190  RH  100%=      5-min Rain = 0
KAM3 250851Z 16014KT 19/19 A2991 RMK A01 T01900190  RH  100%=      5-min Rain = 0
KAM3 250852Z 16016KT 19/19 A2991 RMK A01 T01890189  RH  100%=      5-min Rain = 0
KAM3 250853Z 16015KT 19/19 A2991 RMK A01 T01890189  RH  100%=      5-min Rain = 0
KAM3 250854Z 16017KT 19/19 A2992 RMK A01 T01880189  RH  100%=      5-min Rain = 0
KAM3 250855Z 16014KT 19/19 A2992 RMK A01 T01890189  RH  100%=      5-min Rain = 0
KAM3 250856Z 16015KT 19/19 A2992 RMK A01 T01880189  RH  100%=      5-min Rain = 0
KAM3 250857Z 16015KT 19/19 A2991 RMK A01 T01880188  RH  100%=      5-min Rain = 0
KAM3 250858Z 16016KT 19/19 A2991 RMK A01 T01880188  RH  100%=      5-min Rain = 0
KAM3 250859Z 16014KT 19/19 A2991 RMK A01 T01870188  RH  100%=      5-min Rain = 0
KAM3 250900Z 16015KT 19/19 A2991 RMK A01 T01880188  RH  100%=      5-min Rain = 0
KAM3 250901Z 15015KT 19/19 A2991 RMK A01 T01880188  RH  100%=      5-min Rain = 0
KAM3 250902Z 16015KT 19/19 A2991 RMK A01 T01870187  RH  100%=      5-min Rain = 0
KAM3 250903Z 16016KT 19/19 A2991 RMK A01 T01870187  RH  100%=      5-min Rain = 0
KAM3 250904Z 16016KT 19/19 A2992 RMK A01 T01870187  RH  100%=      5-min Rain = 0
KAM3 250905Z 16014KT 19/19 A2992 RMK A01 T01870187  RH  100%=      5-min Rain = 0
KAM3 250906Z 16014KT 19/19 A2992 RMK A01 T01870187  RH  100%=      5-min Rain = 0
KAM3 250907Z 16017G22KT 19/19 A2992 RMK A01 T01860186  RH  100%=      5-min Rain = 0
KAM3 250908Z 16016KT 19/19 A2992 RMK A01 T01860186  RH  100%=      5-min Rain = 0
KAM3 250909Z 16016KT 19/19 A2992 RMK A01 T01870187  RH  100%=      5-min Rain = 0
KAM3 250910Z 16017KT 19/19 A2992 RMK A01 T01870187  RH  100%=      5-min Rain = 0
KAM3 250911Z 16017KT 19/19 A2992 RMK A01 T01870187  RH  100%=      5-min Rain = 0
KAM3 250912Z 16015KT 19/19 A2992 RMK A01 T01870187  RH  100%=      5-min Rain = 0
KAM3 250913Z 16016G24KT 19/19 A2992 RMK A01 T01860187  RH  100%=      5-min Rain = 0
KAM3 250914Z 16019G24KT 19/19 A2992 RMK A01 T01860186  RH  100%=      5-min Rain = 0
KAM3 250915Z 16016KT 19/19 A2992 RMK A01 T01870187  RH  100%=      5-min Rain = 0
KAM3 250916Z 16018KT 19/19 A2992 RMK A01 T01870187  RH  100%=      5-min Rain = 0
KAM3 250917Z 16017G22KT 19/19 A2992 RMK A01 T01870187  RH  100%=      5-min Rain = 0
KAM3 250918Z 17015KT 19/19 A2992 RMK A01 T01870187  RH  100%=      5-min Rain = 0
KAM3 250919Z 17016KT 19/19 A2992 RMK A01 T01860187  RH  100%=      5-min Rain = 0
KAM3 250920Z 16016KT 19/19 A2992 RMK A01 T01860186  RH  100%=      5-min Rain = 0
KAM3 250921Z 16015KT 19/19 A2992 RMK A01 T01860186  RH  100%=      5-min Rain = 0
KAM3 250922Z 17018G23KT 19/19 A2992 RMK A01 T01860186  RH  100%=      5-min Rain = 0
KAM3 250923Z 16017KT 19/19 A2992 RMK A01 T01860186  RH  100%=      5-min Rain = 0
KAM3 250924Z 16018KT 19/19 A2992 RMK A01 T01860186  RH  100%=      5-min Rain = 0
KAM3 250925Z 17017KT 19/19 A2992 RMK A01 T01860187  RH  100%=      5-min Rain = 0
KAM3 250926Z 16016KT 19/19 A2992 RMK A01 T01860186  RH  100%=      5-min Rain = 0
KAM3 250927Z 16017KT 19/19 A2992 RMK A01 T01860187  RH  100%=      5-min Rain = 0
KAM3 250928Z 17017KT 19/19 A2992 RMK A01 T01860186  RH  100%=      5-min Rain = 0
KAM3 250929Z 17019KT 19/19 A2992 RMK A01 T01860186  RH  100%=      5-min Rain = 0
KAM3 250930Z 16017KT 19/19 A2992 RMK A01 T01860187  RH  100%=      5-min Rain = 0
KAM3 250931Z 17017KT 19/19 A2992 RMK A01 T01860186  RH  100%=      5-min Rain = 0
KAM3 250932Z 17018KT 19/19 A2992 RMK A01 T01860187  RH  100%=      5-min Rain = 0
KAM3 250933Z 17018KT 19/19 A2992 RMK A01 T01860186  RH  100%=      5-min Rain = 0
KAM3 250934Z 17019KT 19/19 A2992 RMK A01 T01860186  RH  100%=      5-min Rain = 0
KAM3 250935Z 17016KT 19/19 A2992 RMK A01 T01860186  RH  100%=      5-min Rain = 0
KAM3 250936Z 16019KT 19/19 A2992 RMK A01 T01860186  RH  100%=      5-min Rain = 0
KAM3 250937Z 16019KT 19/19 A2992 RMK A01 T01860186  RH  100%=      5-min Rain = 0
KAM3 250938Z 16018G23KT 19/19 A2992 RMK A01 T01860186  RH  100%=      5-min Rain = 0
KAM3 250939Z 16016KT 19/19 A2992 RMK A01 T01860186  RH  100%=      5-min Rain = 0
KAM3 250940Z 16017KT 19/19 A2992 RMK A01 T01860186  RH  100%=      5-min Rain = 0
KAM3 250941Z 16016G21KT 19/19 A2992 RMK A01 T01860186  RH  100%=      5-min Rain = 0
KAM3 250942Z 16017KT 19/19 A2992 RMK A01 T01850186  RH  100%=      5-min Rain = 0
KAM3 250943Z 16015KT 19/19 A2992 RMK A01 T01850186  RH  100%=      5-min Rain = 0
KAM3 250944Z 17017KT 19/19 A2992 RMK A01 T01850185  RH  100%=      5-min Rain = 0
KAM3 250945Z 16017KT 19/19 A2992 RMK A01 T01850185  RH  100%=      5-min Rain = 0
KAM3 250946Z 16016KT 19/19 A2992 RMK A01 T01850185  RH  100%=      5-min Rain = 0
KAM3 250947Z 16015KT 19/19 A2992 RMK A01 T01850185  RH  100%=      5-min Rain = 0
KAM3 250948Z 17017KT 19/19 A2992 RMK A01 T01850185  RH  100%=      5-min Rain = 0
KAM3 250949Z 17016KT 19/19 A2992 RMK A01 T01850185  RH  100%=      5-min Rain = 0
KAM3 250950Z 17016KT 19/19 A2992 RMK A01 T01850185  RH  100%=      5-min Rain = 0
KAM3 250951Z 17015KT 19/19 A2992 RMK A01 T01850185  RH  100%=      5-min Rain = 0
KAM3 250952Z 17016KT 18/19 A2992 RMK A01 T01840185  RH  100%=      5-min Rain = 0
KAM3 250953Z 16017KT 18/19 A2992 RMK A01 T01840185  RH  100%=      5-min Rain = 0
KAM3 250954Z 17016KT 18/19 A2992 RMK A01 T01840185  RH  100%=      5-min Rain = 0
KAM3 250955Z 16014KT 18/19 A2992 RMK A01 T01840185  RH  100%=      5-min Rain = 0
KAM3 250956Z 16017KT 18/19 A2992 RMK A01 T01840185  RH  100%=      5-min Rain = 0
KAM3 250957Z 16016KT 18/18 A2992 RMK A01 T01840184  RH  100%=      5-min Rain = 0
KAM3 250958Z 16014KT 18/18 A2992 RMK A01 T01840184  RH  100%=      5-min Rain = 0
KAM3 250959Z 17017KT 18/18 A2992 RMK A01 T01840184  RH  100%=      5-min Rain = 0
KAM3 251000Z 17015KT 18/18 A2992 RMK A01 T01840184  RH  100%=      5-min Rain = 0
KAM3 251001Z 17015KT 18/18 A2992 RMK A01 T01840184  RH  100%=      5-min Rain = 0
KAM3 251002Z 16015KT 18/18 A2992 RMK A01 T01840184  RH  100%=      5-min Rain = 0
KAM3 251003Z 16014KT 18/18 A2992 RMK A01 T01840184  RH  100%=      5-min Rain = 0
KAM3 251004Z 17014G19KT 18/18 A2993 RMK A01 T01840184  RH  100%=      5-min Rain = 0
KAM3 251005Z 17016KT 18/18 A2992 RMK A01 T01830184  RH  100%=      5-min Rain = 0
KAM3 251006Z 17014KT 18/18 A2992 RMK A01 T01840184  RH  100%=      5-min Rain = 0
KAM3 251007Z 17014KT 18/18 A2992 RMK A01 T01840184  RH  100%=      5-min Rain = 0
KAM3 251008Z 16015KT 18/18 A2992 RMK A01 T01840184  RH  100%=      5-min Rain = 0
KAM3 251009Z 16013KT 18/18 A2992 RMK A01 T01840184  RH  100%=      5-min Rain = 0
KAM3 251010Z 16017G22KT 18/18 A2992 RMK A01 T01840184  RH  100%=      5-min Rain = 0
KAM3 251011Z 16017KT 18/18 A2992 RMK A01 T01840184  RH  100%=      5-min Rain = 0
KAM3 251012Z 16016KT 18/18 A2992 RMK A01 T01840184  RH  100%=      5-min Rain = 0
KAM3 251013Z 16017KT 18/18 A2992 RMK A01 T01840184  RH  100%=      5-min Rain = 0
KAM3 251014Z 17015KT 18/19 A2992 RMK A01 T01840185  RH  100%=      5-min Rain = 0
KAM3 251015Z 17013KT 18/18 A2993 RMK A01 T01840184  RH  100%=      5-min Rain = 0
KAM3 251016Z 17015KT 18/18 A2993 RMK A01 T01840184  RH  100%=      5-min Rain = 0
KAM3 251017Z 17013KT 18/18 A2993 RMK A01 T01830184  RH  100%=      5-min Rain = 0
KAM3 251018Z 17016KT 18/18 A2993 RMK A01 T01840184  RH  100%=      5-min Rain = 0
KAM3 251019Z 17013KT 18/18 A2993 RMK A01 T01830184  RH  100%=      5-min Rain = 0
KAM3 251020Z 17015KT 18/18 A2993 RMK A01 T01830184  RH  100%=      5-min Rain = 0
KAM3 251021Z 17015KT 18/18 A2993 RMK A01 T01830183  RH  100%=      5-min Rain = 0
KAM3 251022Z 17015KT 18/18 A2993 RMK A01 T01830183  RH  100%=      5-min Rain = 0
KAM3 251023Z 17017KT 18/18 A2993 RMK A01 T01830183  RH  100%=      5-min Rain = 0
KAM3 251024Z 17017KT 18/18 A2993 RMK A01 T01830183  RH  100%=      5-min Rain = 0
KAM3 251025Z 17018KT 18/18 A2993 RMK A01 T01830184  RH  100%=      5-min Rain = 0
KAM3 251026Z 17017KT 18/18 A2993 RMK A01 T01840184  RH  100%=      5-min Rain = 0
KAM3 251027Z 17019G24KT 18/18 A2993 RMK A01 T01830184  RH  100%=      5-min Rain = 0
KAM3 251028Z 17017KT 18/18 A2993 RMK A01 T01840184  RH  100%=      5-min Rain = 0
KAM3 251029Z 17017KT 18/18 A2993 RMK A01 T01840184  RH  100%=      5-min Rain = 0
KAM3 251030Z 16016KT 18/18 A2993 RMK A01 T01840184  RH  100%=      5-min Rain = 0
KAM3 251031Z 17017KT 18/18 A2993 RMK A01 T01830184  RH  100%=      5-min Rain = 0
KAM3 251032Z 17015KT 18/18 A2993 RMK A01 T01840184  RH  100%=      5-min Rain = 0
KAM3 251033Z 17014KT 18/18 A2993 RMK A01 T01830183  RH  100%=      5-min Rain = 0
KAM3 251034Z 16013G18KT 18/18 A2993 RMK A01 T01830183  RH  100%=      5-min Rain = 0
KAM3 251035Z 17015KT 18/18 A2994 RMK A01 T01820183  RH  100%=      5-min Rain = 0
KAM3 251036Z 17016KT 18/18 A2994 RMK A01 T01820182  RH  100%=      5-min Rain = 0
KAM3 251037Z 17016KT 18/18 A2994 RMK A01 T01820182  RH  100%=      5-min Rain = 0
KAM3 251038Z 17015KT 18/18 A2994 RMK A01 T01820182  RH  100%=      5-min Rain = 0
KAM3 251039Z 17013KT 18/18 A2994 RMK A01 T01820182  RH  100%=      5-min Rain = 0
KAM3 251040Z 17015G20KT 18/18 A2994 RMK A01 T01820182  RH  100%=      5-min Rain = 0
KAM3 251041Z 17015KT 18/18 A2994 RMK A01 T01820182  RH  100%=      5-min Rain = 0
KAM3 251042Z 17015KT 18/18 A2994 RMK A01 T01820182  RH  100%=      5-min Rain = 0
KAM3 251043Z 17015KT 18/18 A2994 RMK A01 T01820182  RH  100%=      5-min Rain = 0
KAM3 251044Z 17017KT 18/18 A2994 RMK A01 T01820182  RH  100%=      5-min Rain = 0
KAM3 251045Z 17017KT 18/18 A2994 RMK A01 T01820182  RH  100%=      5-min Rain = 0
KAM3 251046Z 17016KT 18/18 A2994 RMK A01 T01820182  RH  100%=      5-min Rain = 0
KAM3 251047Z 17015KT 18/18 A2994 RMK A01 T01820182  RH  100%=      5-min Rain = 0
KAM3 251048Z 17014KT 18/18 A2994 RMK A01 T01820182  RH  100%=      5-min Rain = 0
KAM3 251049Z 16013KT 18/18 A2994 RMK A01 T01820182  RH  100%=      5-min Rain = 0
KAM3 251050Z 16015G20KT 18/18 A2994 RMK A01 T01820182  RH  100%=      5-min Rain = 0
KAM3 251051Z 17013KT 18/18 A2994 RMK A01 T01810182  RH  100%=      5-min Rain = 0
KAM3 251052Z 17016KT 18/18 A2994 RMK A01 T01810181  RH  100%=      5-min Rain = 0
KAM3 251053Z 17014KT 18/18 A2994 RMK A01 T01810181  RH  100%=      5-min Rain = 0
KAM3 251054Z 17014KT 18/18 A2994 RMK A01 T01810181  RH  100%=      5-min Rain = 0
KAM3 251055Z 17017G22KT 18/18 A2994 RMK A01 T01810181  RH  100%=      5-min Rain = 0
KAM3 251056Z 17015KT 18/18 A2994 RMK A01 T01820182  RH  100%=      5-min Rain = 0
KAM3 251057Z 17015KT 18/18 A2994 RMK A01 T01820182  RH  100%=      5-min Rain = 0
KAM3 251058Z 17015KT 18/18 A2994 RMK A01 T01820182  RH  100%=      5-min Rain = 0
KAM3 251059Z 17015KT 18/18 A2995 RMK A01 T01820182  RH  100%=      5-min Rain = 0
KAM3 251100Z 17017KT 18/18 A2994 RMK A01 T01820182  RH  100%=      5-min Rain = 0
KAM3 251101Z 17015KT 18/18 A2995 RMK A01 T01820182  RH  100%=      5-min Rain = 0
KAM3 251102Z 17013KT 18/18 A2995 RMK A01 T01820182  RH  100%=      5-min Rain = 0
KAM3 251103Z 17014KT 18/18 A2995 RMK A01 T01820182  RH  100%=      5-min Rain = 0
KAM3 251104Z 17015KT 18/18 A2994 RMK A01 T01810181  RH  100%=      5-min Rain = 0
KAM3 251105Z 17015KT 18/18 A2994 RMK A01 T01810181  RH  100%=      5-min Rain = 0
KAM3 251106Z 17014KT 18/18 A2994 RMK A01 T01810181  RH  100%=      5-min Rain = 0
KAM3 251107Z 17013KT 18/18 A2995 RMK A01 T01810181  RH  100%=      5-min Rain = 0
KAM3 251108Z 17015KT 18/18 A2994 RMK A01 T01810182  RH  100%=      5-min Rain = 0
KAM3 251109Z 17015KT 18/18 A2994 RMK A01 T01810182  RH  100%=      5-min Rain = 0
KAM3 251110Z 17015KT 18/18 A2994 RMK A01 T01810181  RH  100%=      5-min Rain = 0
KAM3 251111Z 17016KT 18/18 A2994 RMK A01 T01810181  RH  100%=      5-min Rain = 0
KAM3 251112Z 17014KT 18/18 A2994 RMK A01 T01810182  RH  100%=      5-min Rain = 0
KAM3 251113Z 17016KT 18/18 A2994 RMK A01 T01810181  RH  100%=      5-min Rain = 0
KAM3 251114Z 17015KT 18/18 A2994 RMK A01 T01810182  RH  100%=      5-min Rain = 0
KAM3 251115Z 17017KT 18/18 A2994 RMK A01 T01820182  RH  100%=      5-min Rain = 0
KAM3 251116Z 17016KT 18/18 A2994 RMK A01 T01820182  RH  100%=      5-min Rain = 0
KAM3 251117Z 16014KT 18/18 A2994 RMK A01 T01820182  RH  100%=      5-min Rain = 0
KAM3 251118Z 17015KT 18/18 A2994 RMK A01 T01820182  RH  100%=      5-min Rain = 0
KAM3 251119Z 17015KT 18/18 A2995 RMK A01 T01820182  RH  100%=      5-min Rain = 0
KAM3 251120Z 17013G18KT 18/18 A2995 RMK A01 T01820182  RH  100%=      5-min Rain = 0
KAM3 251121Z 17014KT 18/18 A2995 RMK A01 T01820182  RH  100%=      5-min Rain = 0
KAM3 251122Z 17015KT 18/18 A2995 RMK A01 T01810181  RH  100%=      5-min Rain = 0
KAM3 251123Z 17013KT 18/18 A2995 RMK A01 T01810181  RH  100%=      5-min Rain = 0
KAM3 251124Z 16014KT 18/18 A2995 RMK A01 T01810181  RH  100%=      5-min Rain = 0
KAM3 251125Z 17015KT 18/18 A2995 RMK A01 T01810181  RH  100%=      5-min Rain = 0
KAM3 251126Z 17015G20KT 18/18 A2995 RMK A01 T01810181  RH  100%=      5-min Rain = 0
KAM3 251127Z 17015G20KT 18/18 A2995 RMK A01 T01820182  RH  100%=      5-min Rain = 0
KAM3 251128Z 17014KT 18/18 A2995 RMK A01 T01820182  RH  100%=      5-min Rain = 0
KAM3 251129Z 17016KT 18/18 A2995 RMK A01 T01820182  RH  100%=      5-min Rain = 0
KAM3 251130Z 17014KT 18/18 A2995 RMK A01 T01820182  RH  100%=      5-min Rain = 0
KAM3 251131Z 17014KT 18/18 A2995 RMK A01 T01820182  RH  100%=      5-min Rain = 0
KAM3 251132Z 17014KT 18/18 A2995 RMK A01 T01820182  RH  100%=      5-min Rain = 0
KAM3 251133Z 17016KT 18/18 A2995 RMK A01 T01820182  RH  100%=      5-min Rain = 0
KAM3 251134Z 17016KT 18/18 A2995 RMK A01 T01820182  RH  100%=      5-min Rain = 0
KAM3 251135Z 17015KT 18/18 A2995 RMK A01 T01820182  RH  100%=      5-min Rain = 0
KAM3 251136Z 17016KT 18/18 A2995 RMK A01 T01820182  RH  100%=      5-min Rain = 0
KAM3 251137Z 17015KT 18/18 A2995 RMK A01 T01820182  RH  100%=      5-min Rain = 0
KAM3 251138Z 16016KT 18/18 A2995 RMK A01 T01820182  RH  100%=      5-min Rain = 0
KAM3 251139Z 17016G21KT 18/18 A2995 RMK A01 T01820183  RH  100%=      5-min Rain = 0
KAM3 251140Z 17014KT 18/18 A2996 RMK A01 T01830183  RH  100%=      5-min Rain = 0
KAM3 251141Z 17015KT 18/18 A2996 RMK A01 T01830183  RH  100%=      5-min Rain = 0
KAM3 251142Z 17016G21KT 18/18 A2996 RMK A01 T01830183  RH  100%=      5-min Rain = 0
KAM3 251143Z 17014KT 18/18 A2996 RMK A01 T01830183  RH  100%=      5-min Rain = 0
KAM3 251144Z 17016KT 18/18 A2996 RMK A01 T01830183  RH  100%=      5-min Rain = 0
KAM3 251145Z 17014KT 18/18 A2996 RMK A01 T01830183  RH  100%=      5-min Rain = 0
KAM3 251146Z 17014KT 18/18 A2996 RMK A01 T01830183  RH  100%=      5-min Rain = 0
KAM3 251147Z 17016KT 18/18 A2996 RMK A01 T01830183  RH  100%=      5-min Rain = 0
KAM3 251148Z 17014G20KT 18/18 A2996 RMK A01 T01830184  RH  100%=      5-min Rain = 0
KAM3 251149Z 17017KT 18/18 A2996 RMK A01 T01840184  RH  100%=      5-min Rain = 0
KAM3 251150Z 17014KT 18/18 A2996 RMK A01 T01840184  RH  100%=      5-min Rain = 0
KAM3 251151Z 17013G18KT 18/18 A2996 RMK A01 T01840184  RH  100%=      5-min Rain = 0
KAM3 251152Z 17012G17KT 18/18 A2996 RMK A01 T01840184  RH  100%=      5-min Rain = 0
KAM3 251153Z 17016G21KT 18/18 A2996 RMK A01 T01840184  RH  100%=      5-min Rain = 0
KAM3 251154Z 17016KT 18/18 A2996 RMK A01 T01840184  RH  100%=      5-min Rain = 0
KAM3 251155Z 17017G22KT 19/19 A2996 RMK A01 T01850185  RH  100%=      5-min Rain = 0
KAM3 251156Z 17015KT 19/19 A2996 RMK A01 T01850185  RH  100%=      5-min Rain = 0
KAM3 251157Z 17015KT 19/19 A2996 RMK A01 T01850185  RH  100%=      5-min Rain = 0
KAM3 251158Z 17015G20KT 19/19 A2996 RMK A01 T01850185  RH  100%=      5-min Rain = 0
KAM3 251159Z 17015KT 19/19 A2996 RMK A01 T01860186  RH  100%=      5-min Rain = 0
KAM3 251200Z 17015KT 19/19 A2997 RMK A01 T01850186  RH  100%=      5-min Rain = 0
KAM3 251201Z 17015KT 19/19 A2997 RMK A01 T01850185  RH  100%=      5-min Rain = 0
KAM3 251202Z 17017KT 19/19 A2997 RMK A01 T01850185  RH  100%=      5-min Rain = 0
KAM3 251203Z 17015G20KT 19/19 A2997 RMK A01 T01860186  RH  100%=      5-min Rain = 0
KAM3 251204Z 17015KT 19/19 A2997 RMK A01 T01860186  RH  100%=      5-min Rain = 0
KAM3 251205Z 17014KT 19/19 A2997 RMK A01 T01860186  RH  100%=      5-min Rain = 0
KAM3 251206Z 17012KT 19/19 A2997 RMK A01 T01860186  RH  100%=      5-min Rain = 0
KAM3 251207Z 17014KT 19/19 A2997 RMK A01 T01860186  RH  100%=      5-min Rain = 0
KAM3 251208Z 17016KT 19/19 A2997 RMK A01 T01860186  RH  100%=      5-min Rain = 0
KAM3 251209Z 17015KT 19/19 A2997 RMK A01 T01850186  RH  100%=      5-min Rain = 0
KAM3 251210Z 17015KT 19/19 A2997 RMK A01 T01860186  RH  100%=      5-min Rain = 0
KAM3 251211Z 17013KT 19/19 A2997 RMK A01 T01860186  RH  100%=      5-min Rain = 0
KAM3 251212Z 17012KT 19/19 A2997 RMK A01 T01860186  RH  100%=      5-min Rain = 0
KAM3 251213Z 17011KT 19/19 A2997 RMK A01 T01860186  RH  100%=      5-min Rain = 0
KAM3 251214Z 17014KT 19/19 A2997 RMK A01 T01860186  RH  100%=      5-min Rain = 0
KAM3 251215Z 17016KT 19/19 A2997 RMK A01 T01850186  RH  100%=      5-min Rain = 0
KAM3 251216Z 17014KT 19/19 A2997 RMK A01 T01850186  RH  100%=      5-min Rain = 0
KAM3 251217Z 17014KT 19/19 A2997 RMK A01 T01860186  RH  100%=      5-min Rain = 0
KAM3 251218Z 17016KT 19/19 A2997 RMK A01 T01860186  RH  100%=      5-min Rain = 0
KAM3 251219Z 17014G19KT 19/19 A2997 RMK A01 T01870187  RH  100%=      5-min Rain = 0
KAM3 251220Z 17014KT 19/19 A2997 RMK A01 T01870187  RH  100%=      5-min Rain = 0
KAM3 251221Z 17015KT 19/19 A2997 RMK A01 T01870187  RH  100%=      5-min Rain = 0
KAM3 251222Z 17014KT 19/19 A2997 RMK A01 T01870187  RH  100%=      5-min Rain = 0
KAM3 251223Z 17015KT 19/19 A2997 RMK A01 T01870187  RH  100%=      5-min Rain = 0
KAM3 251224Z 17016G21KT 19/19 A2997 RMK A01 T01870187  RH  100%=      5-min Rain = 0
KAM3 251225Z 17017KT 19/19 A2997 RMK A01 T01870188  RH  100%=      5-min Rain = 0
KAM3 251226Z 17017KT 19/19 A2997 RMK A01 T01880188  RH  100%=      5-min Rain = 0
KAM3 251227Z 17016KT 19/19 A2997 RMK A01 T01880188  RH  100%=      5-min Rain = 0
KAM3 251228Z 17015KT 19/19 A2997 RMK A01 T01890189  RH  100%=      5-min Rain = 0
KAM3 251229Z 17014G20KT 19/19 A2997 RMK A01 T01890189  RH  100%=      5-min Rain = 0
KAM3 251230Z 16014KT 19/19 A2997 RMK A01 T01880189  RH  100%=      5-min Rain = 0
KAM3 251231Z 17015KT 19/19 A2997 RMK A01 T01890189  RH  100%=      5-min Rain = 0
KAM3 251232Z 17018KT 19/19 A2997 RMK A01 T01890189  RH  100%=      5-min Rain = 0
KAM3 251233Z 17019KT 19/19 A2997 RMK A01 T01900190  RH  100%=      5-min Rain = 0
KAM3 251234Z 17018KT 19/19 A2997 RMK A01 T01900190  RH  100%=      5-min Rain = 0
KAM3 251235Z 17017KT 19/19 A2997 RMK A01 T01910191  RH  100%=      5-min Rain = 0
KAM3 251236Z 17017KT 19/19 A2997 RMK A01 T01910191  RH  100%=      5-min Rain = 0
KAM3 251237Z 16015KT 19/19 A2997 RMK A01 T01910192  RH  100%=      5-min Rain = 0
KAM3 251238Z 17015KT 19/19 A2998 RMK A01 T01910192  RH  100%=      5-min Rain = 0
KAM3 251239Z 17014KT 19/19 A2998 RMK A01 T01920192  RH  100%=      5-min Rain = 0
KAM3 251240Z 17014KT 19/19 A2998 RMK A01 T01920192  RH  100%=      5-min Rain = 0
KAM3 251241Z 17013KT 19/19 A2998 RMK A01 T01920192  RH  100%=      5-min Rain = 0
KAM3 251242Z 17014KT 19/19 A2998 RMK A01 T01920192  RH  100%=      5-min Rain = 0
KAM3 251243Z 17016KT 19/19 A2998 RMK A01 T01920192  RH  100%=      5-min Rain = 0
KAM3 251244Z 17016KT 19/19 A2998 RMK A01 T01930193  RH  100%=      5-min Rain = 0
KAM3 251245Z 17017KT 19/19 A2998 RMK A01 T01930193  RH  100%=      5-min Rain = 0
KAM3 251246Z 17016KT 19/19 A2997 RMK A01 T01930193  RH  100%=      5-min Rain = 0
KAM3 251247Z 17016KT 19/19 A2998 RMK A01 T01930193  RH  100%=      5-min Rain = 0
KAM3 251248Z 17015KT 19/19 A2998 RMK A01 T01940194  RH  100%=      5-min Rain = 0
KAM3 251249Z 17018KT 19/19 A2998 RMK A01 T01940194  RH  100%=      5-min Rain = 0
KAM3 251250Z 17015KT 19/19 A2998 RMK A01 T01940194  RH  100%=      5-min Rain = 0
KAM3 251251Z 17013KT 19/19 A2998 RMK A01 T01940194  RH  100%=      5-min Rain = 0
KAM3 251252Z 17015KT 20/20 A2998 RMK A01 T01950195  RH  100%=      5-min Rain = 0
KAM3 251253Z 17012KT 20/20 A2998 RMK A01 T01950195  RH  100%=      5-min Rain = 0
KAM3 251254Z 17016KT 20/20 A2998 RMK A01 T01950195  RH  100%=      5-min Rain = 0
KAM3 251255Z 18014KT 20/20 A2998 RMK A01 T01950195  RH  100%=      5-min Rain = 0
KAM3 251256Z 17014KT 19/20 A2998 RMK A01 T01940195  RH  100%=      5-min Rain = 0
KAM3 251257Z 17015KT 19/19 A2998 RMK A01 T01940194  RH  100%=      5-min Rain = 0
KAM3 251258Z 17014KT 19/19 A2998 RMK A01 T01940194  RH  100%=      5-min Rain = 0
KAM3 251259Z 17014G19KT 19/19 A2998 RMK A01 T01930194  RH  100%=      5-min Rain = 0
KAM3 251300Z 17017KT 19/19 A2998 RMK A01 T01930193  RH  100%=      5-min Rain = 0
KAM3 251301Z 17015KT 19/19 A2998 RMK A01 T01930193  RH  100%=      5-min Rain = 0
KAM3 251302Z 17015G21KT 19/19 A2998 RMK A01 T01940194  RH  100%=      5-min Rain = 0
KAM3 251303Z 17015G20KT 19/19 A2998 RMK A01 T01940194  RH  100%=      5-min Rain = 0
KAM3 251304Z 17016KT 19/19 A2998 RMK A01 T01940194  RH  100%=      5-min Rain = 0
KAM3 251305Z 17016KT 19/19 A2998 RMK A01 T01940194  RH  100%=      5-min Rain = 0
KAM3 251306Z 17016KT 19/19 A2998 RMK A01 T01940194  RH  100%=      5-min Rain = 0
KAM3 251307Z 17013KT 19/19 A2998 RMK A01 T01940194  RH  100%=      5-min Rain = 0
KAM3 251308Z 17016G21KT 19/19 A2998 RMK A01 T01940194  RH  100%=      5-min Rain = 0
KAM3 251309Z 17018KT 19/19 A2998 RMK A01 T01940194  RH  100%=      5-min Rain = 0
KAM3 251310Z 17018KT 20/20 A2998 RMK A01 T01950195  RH  100%=      5-min Rain = 0
KAM3 251311Z 16014KT 20/20 A2999 RMK A01 T01950195  RH  100%=      5-min Rain = 0
KAM3 251312Z 17014KT 20/20 A2999 RMK A01 T01960196  RH  100%=      5-min Rain = 0
KAM3 251313Z 17015KT 20/20 A2999 RMK A01 T01960197  RH  100%=      5-min Rain = 0
KAM3 251314Z 17015KT 20/20 A2999 RMK A01 T01960197  RH  100%=      5-min Rain = 0
KAM3 251315Z 16012KT 20/20 A2999 RMK A01 T01970197  RH  100%=      5-min Rain = 0
KAM3 251316Z 17016KT 20/20 A2999 RMK A01 T01970197  RH  100%=      5-min Rain = 0
KAM3 251317Z 17013G18KT 20/20 A2999 RMK A01 T01970197  RH  100%=      5-min Rain = 0
KAM3 251318Z 17014KT 20/20 A2999 RMK A01 T01970197  RH  100%=      5-min Rain = 0
KAM3 251319Z 17014KT 20/20 A2999 RMK A01 T01970197  RH  100%=      5-min Rain = 0
KAM3 251320Z 17012KT 20/20 A2999 RMK A01 T01970197  RH  100%=      5-min Rain = 0
KAM3 251321Z 17012KT 20/20 A2999 RMK A01 T01970197  RH  100%=      5-min Rain = 0
KAM3 251322Z 16013G18KT 20/20 A2999 RMK A01 T01970197  RH  100%=      5-min Rain = 0
KAM3 251323Z 16015KT 20/20 A2999 RMK A01 T01970197  RH  100%=      5-min Rain = 0
KAM3 251324Z 17013KT 20/20 A2999 RMK A01 T01980198  RH  100%=      5-min Rain = 0
KAM3 251325Z 17012KT 20/20 A2999 RMK A01 T01980198  RH  100%=      5-min Rain = 0
KAM3 251326Z 17014KT 20/20 A2999 RMK A01 T01990199  RH  100%=      5-min Rain = 0
KAM3 251327Z 17012KT 20/20 A2999 RMK A01 T01990199  RH  100%=      5-min Rain = 0
KAM3 251328Z 17010KT 20/20 A2999 RMK A01 T02000200  RH  100%=      5-min Rain = 0
KAM3 251329Z 17012KT 20/20 A2999 RMK A01 T02000200  RH  100%=      5-min Rain = 0
KAM3 251330Z 17011KT 20/20 A2999 RMK A01 T02010201  RH  100%=      5-min Rain = 0
KAM3 251331Z 17015KT 20/20 A2999 RMK A01 T02010201  RH  100%=      5-min Rain = 0
KAM3 251332Z 17014KT 20/20 A2999 RMK A01 T02010201  RH  100%=      5-min Rain = 0
KAM3 251333Z 17011KT 20/20 A2999 RMK A01 T02010201  RH  100%=      5-min Rain = 0
KAM3 251334Z 17013KT 20/20 A2999 RMK A01 T02010202  RH  100%=      5-min Rain = 0
KAM3 251335Z 18011KT 20/20 A2999 RMK A01 T02020202  RH  100%=      5-min Rain = 0
KAM3 251336Z 17013KT 20/20 A2999 RMK A01 T02020202  RH  100%=      5-min Rain = 0
KAM3 251337Z 17014KT 20/20 A2999 RMK A01 T02020202  RH  100%=      5-min Rain = 0
KAM3 251338Z 17013KT 20/20 A30 RMK A01 T02020202  RH  100%=      5-min Rain = 0
KAM3 251339Z 18014KT 20/20 A30 RMK A01 T02030203  RH  100%=      5-min Rain = 0
KAM3 251340Z 18010G15KT 20/20 A30 RMK A01 T02030203  RH  100%=      5-min Rain = 0
KAM3 251341Z 17010KT 20/20 A30 RMK A01 T02030203  RH  100%=      5-min Rain = 0
KAM3 251342Z 18012KT 20/20 A30 RMK A01 T02030203  RH  100%=      5-min Rain = 0
KAM3 251343Z 18011KT 20/20 A30 RMK A01 T02030204  RH  100%=      5-min Rain = 0
KAM3 251344Z 18011KT 20/20 A30 RMK A01 T02040204  RH  100%=      5-min Rain = 0
KAM3 251345Z 17012G17KT 20/20 A30 RMK A01 T02040204  RH  100%=      5-min Rain = 0
KAM3 251346Z 18013G18KT 20/21 A30 RMK A01 T02040205  RH  100%=      5-min Rain = 0
KAM3 251347Z 17013KT 20/20 A30 RMK A01 T02040204  RH  100%=      5-min Rain = 0
KAM3 251348Z 17012KT 20/20 A30 RMK A01 T02040204  RH  100%=      5-min Rain = 0
KAM3 251349Z 18011KT 20/20 A30 RMK A01 T02040204  RH  100%=      5-min Rain = 0
KAM3 251350Z 17011KT 21/21 A30 RMK A01 T02050205  RH  100%=      5-min Rain = 0
KAM3 251351Z 17010KT 21/21 A30 RMK A01 T02050205  RH  100%=      5-min Rain = 0
KAM3 251352Z 18010G15KT 21/21 A30 RMK A01 T02050205  RH  100%=      5-min Rain = 0
KAM3 251353Z 18011KT 21/21 A30 RMK A01 T02050206  RH  100%=      5-min Rain = 0
KAM3 251354Z 18007KT 21/21 A30 RMK A01 T02050206  RH  100%=      5-min Rain = 0
KAM3 251355Z 18011KT 21/21 A30 RMK A01 T02060206  RH  100%=      5-min Rain = 0
KAM3 251356Z 18010KT 21/21 A30 RMK A01 T02060206  RH  100%=      5-min Rain = 0
KAM3 251357Z 17011KT 21/21 A30 RMK A01 T02070207  RH  100%=      5-min Rain = 0
KAM3 251358Z 18011KT 21/21 A30 RMK A01 T02070207  RH  100%=      5-min Rain = 0
KAM3 251359Z 18010KT 21/21 A30 RMK A01 T02070207  RH  100%=      5-min Rain = 0
KAM3 251400Z 18010KT 21/21 A30 RMK A01 T02070208  RH  100%=      5-min Rain = 0
KAM3 251401Z 18010KT 21/21 A30 RMK A01 T02080208  RH  100%=      5-min Rain = 0
KAM3 251402Z 17013KT 21/21 A30 RMK A01 T02080208  RH  100%=      5-min Rain = 0
KAM3 251403Z 18012KT 21/21 A30 RMK A01 T02080208  RH  100%=      5-min Rain = 0
KAM3 251404Z 17012KT 21/21 A30 RMK A01 T02090209  RH  100%=      5-min Rain = 0
KAM3 251405Z 18012KT 21/21 A30 RMK A01 T02090209  RH  100%=      5-min Rain = 0
KAM3 251406Z 17010KT 21/21 A30 RMK A01 T02090209  RH  100%=      5-min Rain = 0
KAM3 251407Z 17011KT 21/21 A30 RMK A01 T02090209  RH  100%=      5-min Rain = 0
KAM3 251408Z 18009KT 21/21 A30 RMK A01 T02090209  RH  100%=      5-min Rain = 0
KAM3 251409Z 18011KT 21/21 A30 RMK A01 T02090209  RH  100%=      5-min Rain = 0
KAM3 251410Z 18009KT 21/21 A30 RMK A01 T02090209  RH  100%=      5-min Rain = 0
KAM3 251411Z 18010KT 21/21 A30 RMK A01 T02100210  RH  100%=      5-min Rain = 0
KAM3 251412Z 18009KT 21/21 A30 RMK A01 T02100210  RH  100%=      5-min Rain = 0
KAM3 251413Z 17012KT 21/21 A30 RMK A01 T02100210  RH  100%=      5-min Rain = 0
KAM3 251414Z 18009KT 21/21 A3001 RMK A01 T02110211  RH  100%=      5-min Rain = 0
KAM3 251415Z 18012KT 21/21 A3001 RMK A01 T02110210  RH  099%=      5-min Rain = 0
KAM3 251416Z 17010KT 21/21 A3001 RMK A01 T02110210  RH  100%=      5-min Rain = 0
KAM3 251417Z 17010KT 21/21 A3001 RMK A01 T02110211  RH  100%=      5-min Rain = 0
KAM3 251418Z 18011G16KT 21/21 A3001 RMK A01 T02110212  RH  100%=      5-min Rain = 0
KAM3 251419Z 19014KT 21/21 A3001 RMK A01 T02120209  RH  098%=      5-min Rain = 0
KAM3 251420Z 18015KT 21/21 A3001 RMK A01 T02120208  RH  097%=      5-min Rain = 0
KAM3 251421Z 18012KT 21/21 A3001 RMK A01 T02120207  RH  097%=      5-min Rain = 0
KAM3 251422Z 18011KT 21/21 A3001 RMK A01 T02120211  RH  099%=      5-min Rain = 0
KAM3 251423Z 18011KT 21/21 A3001 RMK A01 T02130208  RH  097%=      5-min Rain = 0
KAM3 251424Z 19010KT 21/21 A3001 RMK A01 T02130211  RH  099%=      5-min Rain = 0
KAM3 251425Z 18011KT 21/21 A3001 RMK A01 T02140210  RH  097%=      5-min Rain = 0
KAM3 251426Z 18011KT 22/21 A3001 RMK A01 T02150210  RH  097%=      5-min Rain = 0
KAM3 251427Z 18010KT 22/21 A3001 RMK A01 T02160212  RH  098%=      5-min Rain = 0
KAM3 251428Z 18011KT 22/21 A3001 RMK A01 T02170212  RH  097%=      5-min Rain = 0
KAM3 251429Z 17012KT 22/21 A3001 RMK A01 T02180208  RH  094%=      5-min Rain = 0
KAM3 251430Z 18011KT 22/21 A3001 RMK A01 T02180207  RH  093%=      5-min Rain = 0
KAM3 251431Z 19013KT 22/21 A3001 RMK A01 T02170209  RH  095%=      5-min Rain = 0
KAM3 251432Z 19013KT 22/21 A3001 RMK A01 T02170206  RH  093%=      5-min Rain = 0
KAM3 251433Z 18012KT 22/21 A3001 RMK A01 T02170207  RH  094%=      5-min Rain = 0
KAM3 251434Z 18010KT 22/21 A3001 RMK A01 T02170209  RH  095%=      5-min Rain = 0
KAM3 251435Z 18009KT 22/21 A3001 RMK A01 T02170212  RH  097%=      5-min Rain = 0
KAM3 251436Z 18011KT 22/21 A3001 RMK A01 T02190211  RH  096%=      5-min Rain = 0
KAM3 251437Z 18012KT 22/21 A3001 RMK A01 T02190208  RH  093%=      5-min Rain = 0
KAM3 251438Z 18012KT 22/21 A3001 RMK A01 T02190209  RH  094%=      5-min Rain = 0
KAM3 251439Z 17013KT 22/21 A3001 RMK A01 T02200209  RH  093%=      5-min Rain = 0
KAM3 251440Z 17014KT 22/21 A3001 RMK A01 T02200207  RH  092%=      5-min Rain = 0
KAM3 251441Z 18016KT 22/20 A3001 RMK A01 T02210204  RH  090%=      5-min Rain = 0
KAM3 251442Z 18015KT 22/20 A3001 RMK A01 T02210204  RH  090%=      5-min Rain = 0
KAM3 251443Z 18015KT 22/20 A3001 RMK A01 T02210202  RH  089%=      5-min Rain = 0
KAM3 251444Z 18013KT 22/20 A3001 RMK A01 T02210202  RH  089%=      5-min Rain = 0
KAM3 251445Z 18011KT 22/20 A3001 RMK A01 T02210204  RH  090%=      5-min Rain = 0
KAM3 251446Z 18011KT 22/21 A3001 RMK A01 T02220208  RH  092%=      5-min Rain = 0
KAM3 251447Z 18011KT 22/21 A3001 RMK A01 T02230207  RH  091%=      5-min Rain = 0
KAM3 251448Z 17012KT 22/21 A3001 RMK A01 T02240205  RH  089%=      5-min Rain = 0
KAM3 251449Z 18011G16KT 22/21 A3001 RMK A01 T02240206  RH  090%=      5-min Rain = 0
KAM3 251450Z 18014KT 22/20 A3001 RMK A01 T02240204  RH  088%=      5-min Rain = 0
KAM3 251451Z 18014KT 22/20 A3001 RMK A01 T02230203  RH  088%=      5-min Rain = 0
KAM3 251452Z 18014KT 22/20 A3001 RMK A01 T02230203  RH  089%=      5-min Rain = 0
KAM3 251453Z 19015KT 22/20 A3001 RMK A01 T02230204  RH  089%=      5-min Rain = 0
KAM3 251454Z 19012G17KT 22/20 A3001 RMK A01 T02230202  RH  088%=      5-min Rain = 0
KAM3 251455Z 19014KT 22/21 A3002 RMK A01 T02230205  RH  089%=      5-min Rain = 0
KAM3 251456Z 19013KT 22/20 A3002 RMK A01 T02230204  RH  089%=      5-min Rain = 0
KAM3 251457Z 19013KT 22/20 A3002 RMK A01 T02230200  RH  087%=      5-min Rain = 0
KAM3 251458Z 19011KT 22/20 A3002 RMK A01 T02230203  RH  088%=      5-min Rain = 0
KAM3 251459Z 19012KT 22/20 A3002 RMK A01 T02230204  RH  089%=      5-min Rain = 0
KAM3 251500Z 18012KT 22/20 A3002 RMK A01 T02240204  RH  089%=      5-min Rain = 0
KAM3 251501Z 19011KT 22/21 A3002 RMK A01 T02240205  RH  089%=      5-min Rain = 0
KAM3 251502Z 18012KT 22/20 A3002 RMK A01 T02240203  RH  088%=      5-min Rain = 0
KAM3 251503Z 19013KT 22/20 A3001 RMK A01 T02240201  RH  087%=      5-min Rain = 0
KAM3 251504Z 19011KT 22/20 A3002 RMK A01 T02240203  RH  087%=      5-min Rain = 0
KAM3 251505Z 18010KT 22/20 A3002 RMK A01 T02240204  RH  089%=      5-min Rain = 0
KAM3 251506Z 18010KT 23/20 A3002 RMK A01 T02250203  RH  088%=      5-min Rain = 0
KAM3 251507Z 19010KT 23/20 A3002 RMK A01 T02250203  RH  087%=      5-min Rain = 0
KAM3 251508Z 19009KT 23/21 A3002 RMK A01 T02260205  RH  088%=      5-min Rain = 0
KAM3 251509Z 20011KT 23/21 A3002 RMK A01 T02280206  RH  087%=      5-min Rain = 0
KAM3 251510Z 19009KT 23/21 A3002 RMK A01 T02290205  RH  086%=      5-min Rain = 0
KAM3 251511Z 18010KT 23/21 A3001 RMK A01 T02300206  RH  086%=      5-min Rain = 0
KAM3 251512Z 20011KT 23/21 A3002 RMK A01 T02320208  RH  086%=      5-min Rain = 0
KAM3 251513Z 19013KT 23/20 A3002 RMK A01 T02320200  RH  082%=      5-min Rain = 0
KAM3 251514Z 20011KT 23/20 A3002 RMK A01 T02290201  RH  084%=      5-min Rain = 0
KAM3 251515Z 19011KT 23/20 A3002 RMK A01 T02280201  RH  085%=      5-min Rain = 0
KAM3 251516Z 20010KT 23/20 A3002 RMK A01 T02280203  RH  086%=      5-min Rain = 0
KAM3 251517Z 20011KT 23/20 A3002 RMK A01 T02280202  RH  086%=      5-min Rain = 0
KAM3 251518Z 20011KT 23/20 A3002 RMK A01 T02290199  RH  084%=      5-min Rain = 0
KAM3 251519Z 20010KT 23/20 A3002 RMK A01 T02290203  RH  086%=      5-min Rain = 0
KAM3 251520Z 20009KT 23/21 A3002 RMK A01 T02290205  RH  086%=      5-min Rain = 0
KAM3 251521Z 21008KT 23/21 A3002 RMK A01 T02290206  RH  087%=      5-min Rain = 0
KAM3 251522Z 20012KT 23/20 A3002 RMK A01 T02300204  RH  085%=      5-min Rain = 0
KAM3 251523Z 20010KT 23/20 A3002 RMK A01 T02300203  RH  085%=      5-min Rain = 0
KAM3 251524Z 20011KT 23/20 A3002 RMK A01 T02290204  RH  085%=      5-min Rain = 0
KAM3 251525Z 20011KT 23/20 A3002 RMK A01 T02290200  RH  084%=      5-min Rain = 0
KAM3 251526Z 19013KT 23/20 A3002 RMK A01 T02300200  RH  083%=      5-min Rain = 0
KAM3 251527Z 19013KT 23/20 A3002 RMK A01 T02300202  RH  084%=      5-min Rain = 0
KAM3 251528Z 20010KT 23/20 A3002 RMK A01 T02300203  RH  085%=      5-min Rain = 0
KAM3 251529Z 20012KT 23/20 A3002 RMK A01 T02310201  RH  083%=      5-min Rain = 0
KAM3 251530Z 20014KT 23/20 A3002 RMK A01 T02310198  RH  082%=      5-min Rain = 0
KAM3 251531Z 20011KT 23/20 A3002 RMK A01 T02310200  RH  083%=      5-min Rain = 0
KAM3 251532Z 20011KT 23/20 A3002 RMK A01 T02320203  RH  084%=      5-min Rain = 0
KAM3 251533Z 20013KT 23/20 A3002 RMK A01 T02330201  RH  082%=      5-min Rain = 0
KAM3 251534Z 19012KT 24/20 A3002 RMK A01 T02350202  RH  082%=      5-min Rain = 0
KAM3 251535Z 19010KT 24/20 A3002 RMK A01 T02350200  RH  081%=      5-min Rain = 0
KAM3 251536Z 20010KT 24/20 A3002 RMK A01 T02350202  RH  082%=      5-min Rain = 0
KAM3 251537Z 21012KT 23/20 A3002 RMK A01 T02340202  RH  082%=      5-min Rain = 0
KAM3 251538Z 21014KT 23/20 A3001 RMK A01 T02340200  RH  081%=      5-min Rain = 0
KAM3 251539Z 21015KT 23/20 A3001 RMK A01 T02340198  RH  080%=      5-min Rain = 0
KAM3 251540Z 21013KT 23/20 A3001 RMK A01 T02330197  RH  080%=      5-min Rain = 0
KAM3 251541Z 21013KT 23/20 A3001 RMK A01 T02320197  RH  081%=      5-min Rain = 0
KAM3 251542Z 21013KT 23/20 A3001 RMK A01 T02330198  RH  081%=      5-min Rain = 0
KAM3 251543Z 20014KT 23/20 A3001 RMK A01 T02330198  RH  081%=      5-min Rain = 0
KAM3 251544Z 19012KT 23/20 A3001 RMK A01 T02330198  RH  081%=      5-min Rain = 0
KAM3 251545Z 20013KT 23/20 A3001 RMK A01 T02340198  RH  081%=      5-min Rain = 0
KAM3 251546Z 20011KT 23/20 A3001 RMK A01 T02340195  RH  079%=      5-min Rain = 0
KAM3 251547Z 19013KT 23/20 A3001 RMK A01 T02340197  RH  080%=      5-min Rain = 0
KAM3 251548Z 19015KT 24/20 A3001 RMK A01 T02350197  RH  079%=      5-min Rain = 0
KAM3 251549Z 20015KT 23/20 A3001 RMK A01 T02340196  RH  079%=      5-min Rain = 0
KAM3 251550Z 20012KT 23/20 A3001 RMK A01 T02340196  RH  079%=      5-min Rain = 0
KAM3 251551Z 20011KT 24/20 A3001 RMK A01 T02350198  RH  079%=      5-min Rain = 0
KAM3 251552Z 20012KT 24/20 A3001 RMK A01 T02380197  RH  078%=      5-min Rain = 0
KAM3 251553Z 20012KT 24/20 A3001 RMK A01 T02380196  RH  077%=      5-min Rain = 0
KAM3 251554Z 20012KT 24/20 A3001 RMK A01 T02390199  RH  078%=      5-min Rain = 0
KAM3 251555Z 20010KT 24/20 A3001 RMK A01 T02390199  RH  078%=      5-min Rain = 0
KAM3 251556Z 19009KT 24/20 A3001 RMK A01 T02400200  RH  078%=      5-min Rain = 0
KAM3 251557Z 19011KT 24/20 A3001 RMK A01 T02410198  RH  077%=      5-min Rain = 0
KAM3 251558Z 19012KT 24/20 A3001 RMK A01 T02410198  RH  077%=      5-min Rain = 0
KAM3 251559Z 20010KT 24/20 A3001 RMK A01 T02400199  RH  078%=      5-min Rain = 0
KAM3 251600Z 19011KT 24/20 A3001 RMK A01 T02390196  RH  077%=      5-min Rain = 0
KAM3 251601Z 20010KT 24/20 A3001 RMK A01 T02390197  RH  078%=      5-min Rain = 0
KAM3 251602Z 20010KT 24/20 A3001 RMK A01 T02390197  RH  078%=      5-min Rain = 0
KAM3 251603Z 20009KT 24/20 A3001 RMK A01 T02390199  RH  078%=      5-min Rain = 0
KAM3 251604Z 20011KT 24/20 A30 RMK A01 T02410200  RH  078%=      5-min Rain = 0
KAM3 251605Z 20014KT 24/20 A30 RMK A01 T02430200  RH  077%=      5-min Rain = 0
KAM3 251606Z 19013KT 24/20 A30 RMK A01 T02440195  RH  074%=      5-min Rain = 0
KAM3 251607Z 19012KT 25/20 A30 RMK A01 T02450199  RH  076%=      5-min Rain = 0
KAM3 251608Z 19010KT 25/20 A30 RMK A01 T02470201  RH  075%=      5-min Rain = 0
KAM3 251609Z 19013KT 25/20 A30 RMK A01 T02470197  RH  073%=      5-min Rain = 0
KAM3 251610Z 18012KT 25/20 A30 RMK A01 T02450195  RH  074%=      5-min Rain = 0
KAM3 251611Z 18009KT 24/20 A30 RMK A01 T02430201  RH  077%=      5-min Rain = 0
KAM3 251612Z 19010KT 25/20 A30 RMK A01 T02450198  RH  075%=      5-min Rain = 0
KAM3 251613Z 20012KT 25/20 A30 RMK A01 T02450196  RH  074%=      5-min Rain = 0
KAM3 251614Z 19012KT 24/19 A30 RMK A01 T02430193  RH  074%=      5-min Rain = 0
KAM3 251615Z 20012KT 24/19 A30 RMK A01 T02410194  RH  075%=      5-min Rain = 0
KAM3 251616Z 20012KT 24/19 A30 RMK A01 T02390192  RH  075%=      5-min Rain = 0
KAM3 251617Z 19009KT 24/20 A30 RMK A01 T02380195  RH  077%=      5-min Rain = 0
KAM3 251618Z 18009KT 24/20 A30 RMK A01 T02380196  RH  077%=      5-min Rain = 0
KAM3 251619Z 18010KT 24/20 A30 RMK A01 T02410201  RH  079%=      5-min Rain = 0
KAM3 251620Z 19011KT 25/20 A30 RMK A01 T02450204  RH  078%=      5-min Rain = 0
KAM3 251621Z 18012KT 25/20 A30 RMK A01 T02500204  RH  075%=      5-min Rain = 0
KAM3 251622Z 18011KT 25/20 A30 RMK A01 T02510198  RH  072%=      5-min Rain = 0
KAM3 251623Z 18011KT 25/20 A30 RMK A01 T02490200  RH  074%=      5-min Rain = 0
KAM3 251624Z 19012G17KT 25/20 A30 RMK A01 T02480198  RH  074%=      5-min Rain = 0
KAM3 251625Z 20013KT 25/19 A30 RMK A01 T02460193  RH  072%=      5-min Rain = 0
KAM3 251626Z 20013KT 25/19 A30 RMK A01 T02450193  RH  073%=      5-min Rain = 0
KAM3 251627Z 20012KT 25/20 A30 RMK A01 T02450196  RH  074%=      5-min Rain = 0
KAM3 251628Z 20012KT 25/20 A30 RMK A01 T02470196  RH  073%=      5-min Rain = 0
KAM3 251629Z 18010KT 25/20 A30 RMK A01 T02470196  RH  073%=      5-min Rain = 0
KAM3 251630Z 17012KT 25/19 A30 RMK A01 T02460193  RH  072%=      5-min Rain = 0
KAM3 251631Z 18010KT 24/19 A30 RMK A01 T02440194  RH  073%=      5-min Rain = 0
KAM3 251632Z 17010KT 24/19 A30 RMK A01 T02430192  RH  073%=      5-min Rain = 0
KAM3 251633Z 18008KT 24/19 A30 RMK A01 T02430193  RH  074%=      5-min Rain = 0
KAM3 251634Z 19010KT 24/20 A30 RMK A01 T02430196  RH  075%=      5-min Rain = 0
KAM3 251635Z 20010KT 25/20 A30 RMK A01 T02460198  RH  075%=      5-min Rain = 0
KAM3 251636Z 20011KT 25/20 A30 RMK A01 T02490195  RH  072%=      5-min Rain = 0
KAM3 251637Z 18011KT 25/20 A30 RMK A01 T02510198  RH  072%=      5-min Rain = 0
KAM3 251638Z 18012KT 25/20 A30 RMK A01 T02520196  RH  071%=      5-min Rain = 0
KAM3 251639Z 18011KT 25/20 A30 RMK A01 T02520199  RH  072%=      5-min Rain = 0
KAM3 251640Z 18012KT 25/20 A30 RMK A01 T02530198  RH  071%=      5-min Rain = 0
KAM3 251641Z 19010KT 25/20 A30 RMK A01 T02520197  RH  071%=      5-min Rain = 0
KAM3 251642Z 19010KT 25/20 A30 RMK A01 T02500196  RH  072%=      5-min Rain = 0
KAM3 251643Z 19011KT 25/20 A30 RMK A01 T02480199  RH  074%=      5-min Rain = 0
KAM3 251644Z 18011KT 25/20 A30 RMK A01 T02480200  RH  074%=      5-min Rain = 0
KAM3 251645Z 17012KT 25/20 A30 RMK A01 T02500198  RH  073%=      5-min Rain = 0
KAM3 251646Z 18014KT 25/20 A30 RMK A01 T02500198  RH  072%=      5-min Rain = 0
KAM3 251647Z 18011KT 25/20 A30 RMK A01 T02490198  RH  073%=      5-min Rain = 0
KAM3 251648Z 17010KT 25/20 A30 RMK A01 T02480200  RH  074%=      5-min Rain = 0
KAM3 251649Z 17012KT 25/20 A30 RMK A01 T02480201  RH  075%=      5-min Rain = 0
KAM3 251650Z 18011KT 25/20 A30 RMK A01 T02490197  RH  073%=      5-min Rain = 0
KAM3 251651Z 18009KT 25/20 A30 RMK A01 T02510200  RH  073%=      5-min Rain = 0
KAM3 251652Z 19009KT 25/20 A30 RMK A01 T02530201  RH  073%=      5-min Rain = 0
KAM3 251653Z 19012KT 25/20 A30 RMK A01 T02540200  RH  072%=      5-min Rain = 0
KAM3 251654Z 17011KT 25/20 A3001 RMK A01 T02540200  RH  072%=      5-min Rain = 0
KAM3 251655Z 17008KT 25/20 A3001 RMK A01 T02530203  RH  074%=      5-min Rain = 0
KAM3 251656Z 17011KT 25/20 A3001 RMK A01 T02530202  RH  074%=      5-min Rain = 0
KAM3 251657Z 17009KT 25/20 A30 RMK A01 T02540203  RH  073%=      5-min Rain = 0
KAM3 251658Z 17009KT 25/20 A3001 RMK A01 T02540203  RH  073%=      5-min Rain = 0
KAM3 251659Z 17009KT 26/20 A3001 RMK A01 T02550204  RH  073%=      5-min Rain = 0
KAM3 251700Z 16008KT 25/20 A3001 RMK A01 T02530199  RH  072%=      5-min Rain = 0
KAM3 251701Z 18006KT 25/20 A30 RMK A01 T02500200  RH  074%=      5-min Rain = 0
KAM3 251702Z 19007KT 25/20 A30 RMK A01 T02490198  RH  073%=      5-min Rain = 0
KAM3 251703Z 19006KT 25/20 A30 RMK A01 T02480200  RH  075%=      5-min Rain = 0
KAM3 251704Z 19006KT 25/20 A30 RMK A01 T02480204  RH  076%=      5-min Rain = 0
KAM3 251705Z 19009KT 25/20 A30 RMK A01 T02490204  RH  076%=      5-min Rain = 0
KAM3 251706Z 18011KT 25/20 A30 RMK A01 T02500197  RH  072%=      5-min Rain = 0
KAM3 251707Z 17011KT 25/20 A30 RMK A01 T02480198  RH  074%=      5-min Rain = 0
KAM3 251708Z 16011KT 25/20 A30 RMK A01 T02470196  RH  073%=      5-min Rain = 0
KAM3 251709Z 17011KT 25/20 A30 RMK A01 T02480197  RH  073%=      5-min Rain = 0
KAM3 251710Z 17010KT 25/20 A30 RMK A01 T02500200  RH  074%=      5-min Rain = 0
KAM3 251711Z 17008KT 25/20 A30 RMK A01 T02520203  RH  074%=      5-min Rain = 0
KAM3 251712Z 16010KT 25/20 A30 RMK A01 T02530202  RH  073%=      5-min Rain = 0
KAM3 251713Z 18012KT 25/20 A30 RMK A01 T02540200  RH  072%=      5-min Rain = 0
KAM3 251714Z 18011KT 25/20 A30 RMK A01 T02540197  RH  071%=      5-min Rain = 0
KAM3 251715Z 18009KT 25/20 A30 RMK A01 T02540196  RH  070%=      5-min Rain = 0
KAM3 251716Z 18009KT 25/20 A30 RMK A01 T02530196  RH  071%=      5-min Rain = 0
KAM3 251717Z 16009KT 25/20 A30 RMK A01 T02530203  RH  074%=      5-min Rain = 0
KAM3 251718Z 16012KT 26/20 A30 RMK A01 T02550200  RH  071%=      5-min Rain = 0
KAM3 251719Z 17011KT 26/20 A30 RMK A01 T02570199  RH  070%=      5-min Rain = 0
KAM3 251720Z 17010KT 26/20 A30 RMK A01 T02580201  RH  071%=      5-min Rain = 0
KAM3 251721Z 18010KT 26/20 A30 RMK A01 T02570197  RH  070%=      5-min Rain = 0
KAM3 251722Z 17011KT 25/20 A30 RMK A01 T02530199  RH  072%=      5-min Rain = 0
KAM3 251723Z 17010KT 25/20 A30 RMK A01 T02520199  RH  073%=      5-min Rain = 0
KAM3 251724Z 16012KT 25/20 A30 RMK A01 T02510197  RH  072%=      5-min Rain = 0
KAM3 251725Z 17008KT 25/20 A30 RMK A01 T02510200  RH  073%=      5-min Rain = 0
KAM3 251726Z 17008KT 25/20 A30 RMK A01 T02520197  RH  071%=      5-min Rain = 0
KAM3 251727Z 17008KT 25/20 A30 RMK A01 T02520198  RH  072%=      5-min Rain = 0
KAM3 251728Z 18009KT 25/20 A30 RMK A01 T02520199  RH  072%=      5-min Rain = 0
KAM3 251729Z 19009KT 25/20 A30 RMK A01 T02520199  RH  072%=      5-min Rain = 0
KAM3 251730Z 18007KT 25/20 A30 RMK A01 T02530200  RH  072%=      5-min Rain = 0
KAM3 251731Z 19007KT 26/21 A30 RMK A01 T02550205  RH  074%=      5-min Rain = 0
KAM3 251732Z 19011KT 26/20 A30 RMK A01 T02580202  RH  071%=      5-min Rain = 0
KAM3 251733Z 20014KT 26/20 A30 RMK A01 T02590196  RH  068%=      5-min Rain = 0
KAM3 251734Z 19011KT 26/19 A30 RMK A01 T02580192  RH  067%=      5-min Rain = 0
KAM3 251735Z 19010KT 26/20 A30 RMK A01 T02570196  RH  069%=      5-min Rain = 0
KAM3 251736Z 18011KT 26/20 A30 RMK A01 T02580200  RH  070%=      5-min Rain = 0
KAM3 251737Z 17010KT 26/20 A30 RMK A01 T02620201  RH  069%=      5-min Rain = 0
KAM3 251738Z 17009KT 26/21 A30 RMK A01 T02630206  RH  071%=      5-min Rain = 0
KAM3 251739Z 16010KT 26/20 A30 RMK A01 T02640198  RH  067%=      5-min Rain = 0
KAM3 251740Z 17007KT 26/20 A30 RMK A01 T02610201  RH  070%=      5-min Rain = 0
KAM3 251741Z 17012KT 26/20 A30 RMK A01 T02600202  RH  070%=      5-min Rain = 0
KAM3 251742Z 17013KT 26/20 A30 RMK A01 T02590196  RH  068%=      5-min Rain = 0
KAM3 251743Z 18012G17KT 26/20 A30 RMK A01 T02570199  RH  070%=      5-min Rain = 0
KAM3 251744Z 17011KT 26/20 A30 RMK A01 T02590201  RH  070%=      5-min Rain = 0
KAM3 251745Z 19009KT 26/21 A30 RMK A01 T02620205  RH  071%=      5-min Rain = 0
KAM3 251746Z 19011KT 27/20 A2999 RMK A01 T02660204  RH  069%=      5-min Rain = 0
KAM3 251747Z 17013KT 27/20 A2999 RMK A01 T02660202  RH  068%=      5-min Rain = 0
KAM3 251748Z 17011KT 27/20 A30 RMK A01 T02650199  RH  067%=      5-min Rain = 0
KAM3 251749Z 16013KT 26/20 A30 RMK A01 T02630199  RH  068%=      5-min Rain = 0
KAM3 251750Z 17012KT 26/20 A2999 RMK A01 T02630199  RH  068%=      5-min Rain = 0
KAM3 251751Z 17011KT 26/20 A2999 RMK A01 T02620196  RH  067%=      5-min Rain = 0
KAM3 251752Z 16011KT 26/20 A2999 RMK A01 T02600197  RH  068%=      5-min Rain = 0
KAM3 251753Z 17010KT 26/20 A2999 RMK A01 T02580198  RH  070%=      5-min Rain = 0
KAM3 251754Z 18012KT 26/20 A2999 RMK A01 T02580199  RH  070%=      5-min Rain = 0
KAM3 251755Z 17014KT 26/20 A2999 RMK A01 T02590196  RH  068%=      5-min Rain = 0
KAM3 251756Z 18014KT 26/20 A2999 RMK A01 T02590195  RH  068%=      5-min Rain = 0
KAM3 251757Z 19014KT 26/19 A2999 RMK A01 T02590194  RH  067%=      5-min Rain = 0
KAM3 251758Z 19014KT 26/19 A2999 RMK A01 T02590194  RH  067%=      5-min Rain = 0
KAM3 251759Z 18014G19KT 26/20 A2999 RMK A01 T02610198  RH  068%=      5-min Rain = 0
KAM3 251800Z 18015KT 26/20 A2999 RMK A01 T02620195  RH  066%=      5-min Rain = 0
KAM3 251801Z 19010G15KT 26/20 A2999 RMK A01 T02610197  RH  068%=      5-min Rain = 0
KAM3 251802Z 19013KT 26/20 A2999 RMK A01 T02600196  RH  068%=      5-min Rain = 0
KAM3 251803Z 19012KT 26/20 A2999 RMK A01 T02580195  RH  068%=      5-min Rain = 0
KAM3 251804Z 18011KT 26/20 A2999 RMK A01 T02580198  RH  069%=      5-min Rain = 0
KAM3 251805Z 18009KT 26/20 A2999 RMK A01 T02580198  RH  069%=      5-min Rain = 0
KAM3 251806Z 17010KT 26/20 A2999 RMK A01 T02580197  RH  069%=      5-min Rain = 0
KAM3 251807Z 16010KT 26/20 A2999 RMK A01 T02580198  RH  069%=      5-min Rain = 0
KAM3 251808Z 15009KT 26/20 A2998 RMK A01 T02580199  RH  070%=      5-min Rain = 0
KAM3 251809Z 15010KT 26/20 A2998 RMK A01 T02590196  RH  068%=      5-min Rain = 0
KAM3 251810Z 16009G14KT 26/20 A2998 RMK A01 T02600198  RH  069%=      5-min Rain = 0
KAM3 251811Z 15009KT 26/20 A2998 RMK A01 T02610202  RH  070%=      5-min Rain = 0
KAM3 251812Z 14010KT 26/20 A2998 RMK A01 T02630201  RH  069%=      5-min Rain = 0
KAM3 251813Z 16008KT 26/20 A2998 RMK A01 T02630201  RH  068%=      5-min Rain = 0
KAM3 251814Z 16007KT 26/21 A2998 RMK A01 T02640206  RH  071%=      5-min Rain = 0
KAM3 251815Z 15008KT 27/20 A2998 RMK A01 T02650200  RH  067%=      5-min Rain = 0
KAM3 251816Z 18011KT 26/20 A2998 RMK A01 T02640200  RH  068%=      5-min Rain = 0
KAM3 251817Z 17011KT 26/19 A2998 RMK A01 T02610194  RH  067%=      5-min Rain = 0
KAM3 251818Z 16015KT 26/20 A2998 RMK A01 T02580196  RH  069%=      5-min Rain = 0
KAM3 251819Z 15013KT 26/20 A2998 RMK A01 T02560197  RH  070%=      5-min Rain = 0
KAM3 251820Z 14011KT 26/20 A2998 RMK A01 T02550200  RH  072%=      5-min Rain = 0
KAM3 251821Z 16012KT 26/20 A2998 RMK A01 T02550201  RH  072%=      5-min Rain = 0
KAM3 251822Z 15016KT 26/20 A2998 RMK A01 T02560201  RH  072%=      5-min Rain = 0
KAM3 251823Z 15016KT 26/20 A2997 RMK A01 T02560198  RH  071%=      5-min Rain = 0
KAM3 251824Z 15016KT 26/20 A2998 RMK A01 T02550198  RH  071%=      5-min Rain = 0
KAM3 251825Z 15013KT 26/20 A2998 RMK A01 T02550201  RH  072%=      5-min Rain = 0
KAM3 251826Z 15015KT 26/21 A2998 RMK A01 T02590205  RH  072%=      5-min Rain = 0
KAM3 251827Z 15015KT 26/21 A2998 RMK A01 T02630205  RH  070%=      5-min Rain = 0
KAM3 251828Z 15014KT 26/20 A2998 RMK A01 T02640201  RH  068%=      5-min Rain = 0
KAM3 251829Z 16012KT 26/20 A2998 RMK A01 T02630204  RH  070%=      5-min Rain = 0
KAM3 251830Z 16010KT 27/21 A2997 RMK A01 T02650208  RH  071%=      5-min Rain = 0
KAM3 251831Z 16011KT 27/21 A2997 RMK A01 T02680211  RH  071%=      5-min Rain = 0
KAM3 251832Z 16013KT 27/20 A2997 RMK A01 T02690203  RH  067%=      5-min Rain = 0
KAM3 251833Z 15009KT 27/20 A2997 RMK A01 T02660203  RH  068%=      5-min Rain = 0
KAM3 251834Z 15011G17KT 26/20 A2997 RMK A01 T02640204  RH  069%=      5-min Rain = 0
KAM3 251835Z 15014KT 26/20 A2997 RMK A01 T02630199  RH  068%=      5-min Rain = 0
KAM3 251836Z 15014KT 26/20 A2997 RMK A01 T02600198  RH  069%=      5-min Rain = 0
KAM3 251837Z 14013G18KT 26/20 A2997 RMK A01 T02570197  RH  069%=      5-min Rain = 0
KAM3 251838Z 14016KT 26/20 A2997 RMK A01 T02550196  RH  070%=      5-min Rain = 0
KAM3 251839Z 15014KT 25/20 A2997 RMK A01 T02530195  RH  070%=      5-min Rain = 0
KAM3 251840Z 14011KT 25/20 A2996 RMK A01 T02510197  RH  072%=      5-min Rain = 0
KAM3 251841Z 14013KT 25/20 A2996 RMK A01 T02510195  RH  071%=      5-min Rain = 0
KAM3 251842Z 15013KT 25/20 A2996 RMK A01 T02500195  RH  071%=      5-min Rain = 0
KAM3 251843Z 16011KT 25/20 A2995 RMK A01 T02500195  RH  072%=      5-min Rain = 0
KAM3 251844Z 15012KT 25/19 A2995 RMK A01 T02490193  RH  071%=      5-min Rain = 0
KAM3 251845Z 16010KT 25/19 A2995 RMK A01 T02490194  RH  072%=      5-min Rain = 0
KAM3 251846Z 16010KT 25/20 A2995 RMK A01 T02490195  RH  072%=      5-min Rain = 0
KAM3 251847Z 16011KT 25/19 A2994 RMK A01 T02490194  RH  072%=      5-min Rain = 0
KAM3 251848Z 15012KT 25/19 A2994 RMK A01 T02490193  RH  071%=      5-min Rain = 0
KAM3 251849Z 15011KT 25/19 A2994 RMK A01 T02490193  RH  071%=      5-min Rain = 0
KAM3 251850Z 16009KT 25/20 A2995 RMK A01 T02480195  RH  072%=      5-min Rain = 0
KAM3 251851Z 15010KT 25/20 A2995 RMK A01 T02480196  RH  073%=      5-min Rain = 0
KAM3 251852Z 15012KT 25/20 A2995 RMK A01 T02480195  RH  072%=      5-min Rain = 0
KAM3 251853Z 16013KT 25/19 A2994 RMK A01 T02480194  RH  072%=      5-min Rain = 0
KAM3 251854Z 16013KT 25/20 A2994 RMK A01 T02480195  RH  072%=      5-min Rain = 0
KAM3 251855Z 15015KT 25/19 A2994 RMK A01 T02480194  RH  072%=      5-min Rain = 0
KAM3 251856Z 15012KT 25/20 A2994 RMK A01 T02480195  RH  072%=      5-min Rain = 0
KAM3 251857Z 15016KT 25/19 A2993 RMK A01 T02480193  RH  071%=      5-min Rain = 0
KAM3 251858Z 15013KT 25/19 A2993 RMK A01 T02480194  RH  072%=      5-min Rain = 0
KAM3 251859Z 15012KT 25/19 A2993 RMK A01 T02480194  RH  072%=      5-min Rain = 0
KAM3 251900Z 14014KT 25/20 A2993 RMK A01 T02470196  RH  073%=      5-min Rain = 0
KAM3 251901Z 14017KT 25/19 A2993 RMK A01 T02460194  RH  072%=      5-min Rain = 0
KAM3 251902Z 13015KT 25/19 A2993 RMK A01 T02450193  RH  073%=      5-min Rain = 0
KAM3 251903Z 14014KT 25/20 A2993 RMK A01 T02450195  RH  074%=      5-min Rain = 0
KAM3 251904Z 14013G18KT 24/19 A2993 RMK A01 T02440194  RH  074%=      5-min Rain = 0
KAM3 251905Z 13013KT 24/19 A2993 RMK A01 T02440193  RH  074%=      5-min Rain = 0
KAM3 251906Z 14014KT 24/19 A2993 RMK A01 T02420193  RH  074%=      5-min Rain = 0
KAM3 251907Z 14011KT 24/19 A2993 RMK A01 T02410193  RH  074%=      5-min Rain = 0
KAM3 251908Z 14012G17KT 24/20 A2993 RMK A01 T02410195  RH  075%=      5-min Rain = 0
KAM3 251909Z 13014KT 24/19 A2993 RMK A01 T02400193  RH  075%=      5-min Rain = 0
KAM3 251910Z 13012KT 24/19 A2993 RMK A01 T02400192  RH  075%=      5-min Rain = 0
KAM3 251911Z 14012KT 24/19 A2993 RMK A01 T02390193  RH  075%=      5-min Rain = 0
KAM3 251912Z 14013KT 24/19 A2993 RMK A01 T02380192  RH  075%=      5-min Rain = 0
KAM3 251913Z 14011KT 24/19 A2993 RMK A01 T02380192  RH  075%=      5-min Rain = 0
KAM3 251914Z 14010G15KT 24/19 A2993 RMK A01 T02380194  RH  076%=      5-min Rain = 0
KAM3 251915Z 13013KT 24/19 A2993 RMK A01 T02380194  RH  077%=      5-min Rain = 0
KAM3 251916Z 13012KT 24/19 A2993 RMK A01 T02370194  RH  077%=      5-min Rain = 0
KAM3 251917Z 12009KT 24/20 A2993 RMK A01 T02360195  RH  077%=      5-min Rain = 0
KAM3 251918Z 13011KT 24/19 A2993 RMK A01 T02350194  RH  078%=      5-min Rain = 0
KAM3 251919Z 13010KT 24/19 A2993 RMK A01 T02350193  RH  077%=      5-min Rain = 0
KAM3 251920Z 13011G18KT 24/19 A2993 RMK A01 T02350194  RH  078%=      5-min Rain = 0
KAM3 251921Z 13014KT 23/19 A2993 RMK A01 T02340192  RH  077%=      5-min Rain = 0
KAM3 251922Z 14013KT 23/19 A2994 RMK A01 T02340192  RH  077%=      5-min Rain = 0
KAM3 251923Z 14014KT 23/19 A2994 RMK A01 T02340192  RH  077%=      5-min Rain = 0
KAM3 251924Z 15014KT 23/19 A2994 RMK A01 T02340193  RH  077%=      5-min Rain = 0
KAM3 251925Z 15015KT 23/19 A2994 RMK A01 T02340192  RH  077%=      5-min Rain = 0
KAM3 251926Z 15013KT 23/19 A2994 RMK A01 T02340192  RH  077%=      5-min Rain = 0
KAM3 251927Z 14016KT 23/19 A2994 RMK A01 T02330191  RH  077%=      5-min Rain = 0
KAM3 251928Z 14014G19KT 23/19 A2994 RMK A01 T02330190  RH  077%=      5-min Rain = 0
KAM3 251929Z 14012KT 23/19 A2994 RMK A01 T02330190  RH  077%=      5-min Rain = 0
KAM3 251930Z 14014G19KT 23/19 A2994 RMK A01 T02320191  RH  078%=      5-min Rain = 0
KAM3 251931Z 14014KT 23/19 A2994 RMK A01 T02310193  RH  079%=      5-min Rain = 0
KAM3 251932Z 15013KT 23/20 A2994 RMK A01 T02290198  RH  083%=      5-min Rain = 0
KAM3 251933Z 15012KT 23/20 A2993 RMK A01 T02250202  RH  087%=      5-min Rain = 0.01
KAM3 251934Z 14012KT 22/21 A2993 RMK A01 T02220205  RH  090%=      5-min Rain = 0
KAM3 251935Z 16012KT 22/21 A2994 RMK A01 T02190209  RH  094%=      5-min Rain = 0.03
KAM3 251936Z 16011KT 22/22 A2994 RMK A01 T02160216  RH  100%=      5-min Rain = 0.01
KAM3 251937Z 16010KT 21/21 A2993 RMK A01 T02140214  RH  100%=      5-min Rain = 0.02
KAM3 251938Z 15006KT 21/21 A2993 RMK A01 T02130213  RH  100%=      5-min Rain = 0.01
KAM3 251939Z 16005KT 21/21 A2993 RMK A01 T02120212  RH  100%=      5-min Rain = 0
KAM3 251940Z 17005KT 21/21 A2993 RMK A01 T02100211  RH  100%=      5-min Rain = 0
KAM3 251941Z 17004KT 21/21 A2994 RMK A01 T02100210  RH  100%=      5-min Rain = 0
KAM3 251942Z 17006KT 21/21 A2994 RMK A01 T02090209  RH  100%=      5-min Rain = 0
KAM3 251943Z 16006KT 21/21 A2994 RMK A01 T02090209  RH  100%=      5-min Rain = 0
KAM3 251944Z 16007KT 21/21 A2994 RMK A01 T02090209  RH  100%=      5-min Rain = 0
KAM3 251945Z 16005KT 21/21 A2994 RMK A01 T02090209  RH  100%=      5-min Rain = 0
KAM3 251946Z 16006KT 21/21 A2994 RMK A01 T02090210  RH  100%=      5-min Rain = 0
KAM3 251947Z 17006KT 21/21 A2994 RMK A01 T02100210  RH  100%=      5-min Rain = 0
KAM3 251948Z 16008KT 21/21 A2994 RMK A01 T02100210  RH  100%=      5-min Rain = 0
KAM3 251949Z 17008KT 21/21 A2995 RMK A01 T02100210  RH  100%=      5-min Rain = 0
KAM3 251950Z 18011KT 21/21 A2995 RMK A01 T02110211  RH  100%=      5-min Rain = 0
KAM3 251951Z 18013G18KT 21/21 A2995 RMK A01 T02120212  RH  100%=      5-min Rain = 0
KAM3 251952Z 18014KT 21/21 A2996 RMK A01 T02140214  RH  100%=      5-min Rain = 0
KAM3 251953Z 19012G17KT 22/22 A2996 RMK A01 T02160216  RH  100%=      5-min Rain = 0.01
KAM3 251954Z 21010KT 22/22 A2997 RMK A01 T02160216  RH  100%=      5-min Rain = 0
KAM3 251955Z 22011KT 22/22 A2997 RMK A01 T02160216  RH  100%=      5-min Rain = 0
KAM3 251956Z 24010KT 22/22 A2998 RMK A01 T02160216  RH  100%=      5-min Rain = 0
KAM3 251957Z 26015G20KT 22/22 A2999 RMK A01 T02160215  RH  100%=      5-min Rain = 0
KAM3 251958Z 28017KT 21/19 A2999 RMK A01 T02100187  RH  086%=      5-min Rain = 0
KAM3 251959Z 29014KT 20/17 A2999 RMK A01 T02000173  RH  084%=      5-min Rain = 0
KAM3 252000Z 29013KT 19/17 A2999 RMK A01 T01930171  RH  087%=      5-min Rain = 0
KAM3 252001Z 28014KT 19/17 A2999 RMK A01 T01860166  RH  088%=      5-min Rain = 0
KAM3 252002Z 28012KT 18/17 A2999 RMK A01 T01800171  RH  094%=      5-min Rain = 0
KAM3 252003Z 28013KT 18/17 A2999 RMK A01 T01750166  RH  095%=      5-min Rain = 0
KAM3 252004Z 27008KT 17/16 A30 RMK A01 T01720159  RH  092%=      5-min Rain = 0
KAM3 252005Z 28008G13KT 17/16 A2999 RMK A01 T01700160  RH  094%=      5-min Rain = 0
KAM3 252006Z 28011KT 17/16 A2999 RMK A01 T01680164  RH  097%=      5-min Rain = 0
KAM3 252007Z 29017KT 17/16 A2999 RMK A01 T01670159  RH  095%=      5-min Rain = 0
KAM3 252008Z 29019KT 17/15 A2999 RMK A01 T01660153  RH  092%=      5-min Rain = 0
KAM3 252009Z 29017KT 16/15 A2999 RMK A01 T01640154  RH  094%=      5-min Rain = 0
KAM3 252010Z 32011KT 16/16 A2999 RMK A01 T01620161  RH  100%=      5-min Rain = 0.01
KAM3 252011Z 33016G21KT 16/16 A2999 RMK A01 T01600160  RH  100%=      5-min Rain = 0
KAM3 252012Z 32016G21KT 16/16 A2999 RMK A01 T01600160  RH  100%=      5-min Rain = 0
KAM3 252013Z 32012KT 16/16 A2999 RMK A01 T01620163  RH  100%=      5-min Rain = 0
KAM3 252014Z 29010KT 16/16 A2999 RMK A01 T01630164  RH  100%=      5-min Rain = 0
KAM3 252015Z 28011KT 16/16 A2998 RMK A01 T01640164  RH  100%=      5-min Rain = 0
KAM3 252016Z 25011KT 17/17 A2998 RMK A01 T01700170  RH  100%=      5-min Rain = 0
KAM3 252017Z 26010KT 18/17 A2999 RMK A01 T01770171  RH  096%=      5-min Rain = 0
KAM3 252018Z 29010KT 18/16 A2999 RMK A01 T01790162  RH  090%=      5-min Rain = 0
KAM3 252019Z 29010KT 18/16 A2999 RMK A01 T01800155  RH  085%=      5-min Rain = 0
KAM3 252020Z 29010KT 18/16 A2999 RMK A01 T01800156  RH  086%=      5-min Rain = 0
KAM3 252021Z 32011KT 18/16 A2999 RMK A01 T01780158  RH  088%=      5-min Rain = 0
KAM3 252022Z 34010KT 18/16 A2999 RMK A01 T01750159  RH  090%=      5-min Rain = 0
KAM3 252023Z 34011KT 17/15 A30 RMK A01 T01720154  RH  090%=      5-min Rain = 0
KAM3 252024Z 34011KT 17/14 A30 RMK A01 T01690142  RH  084%=      5-min Rain = 0
KAM3 252025Z 34011KT 17/14 A30 RMK A01 T01670143  RH  086%=      5-min Rain = 0
KAM3 252026Z 34011KT 17/14 A30 RMK A01 T01650144  RH  087%=      5-min Rain = 0
KAM3 252027Z 32013KT 16/14 A30 RMK A01 T01640141  RH  086%=      5-min Rain = 0
KAM3 252028Z 33013KT 16/14 A30 RMK A01 T01640143  RH  087%=      5-min Rain = 0
KAM3 252029Z 33013KT 16/14 A30 RMK A01 T01630138  RH  086%=      5-min Rain = 0
KAM3 252030Z 33012KT 16/14 A30 RMK A01 T01610135  RH  085%=      5-min Rain = 0.01
KAM3 252031Z 32011KT 16/14 A3001 RMK A01 T01610137  RH  085%=      5-min Rain = 0
KAM3 252032Z 32011KT 16/13 A3001 RMK A01 T01610134  RH  084%=      5-min Rain = 0
KAM3 252033Z 31011KT 16/13 A3002 RMK A01 T01610133  RH  084%=      5-min Rain = 0
KAM3 252034Z 31009KT 16/14 A3003 RMK A01 T01590138  RH  087%=      5-min Rain = 0
KAM3 252035Z 31010KT 16/14 A3003 RMK A01 T01580139  RH  089%=      5-min Rain = 0
KAM3 252036Z 31009KT 16/14 A3003 RMK A01 T01570142  RH  091%=      5-min Rain = 0
KAM3 252037Z 31010KT 16/14 A3003 RMK A01 T01560141  RH  091%=      5-min Rain = 0
KAM3 252038Z 32011KT 16/14 A3002 RMK A01 T01560141  RH  091%=      5-min Rain = 0
KAM3 252039Z 32012KT 16/14 A3002 RMK A01 T01560142  RH  091%=      5-min Rain = 0.01
KAM3 252040Z 32012KT 16/14 A3002 RMK A01 T01560143  RH  092%=      5-min Rain = 0
KAM3 252041Z 33008KT 16/15 A3002 RMK A01 T01560145  RH  093%=      5-min Rain = 0
KAM3 252042Z 34008KT 16/15 A3001 RMK A01 T01550150  RH  097%=      5-min Rain = 0
KAM3 252043Z 34010KT 15/15 A3001 RMK A01 T01540153  RH  099%=      5-min Rain = 0.01
KAM3 252044Z 34011KT 15/15 A3001 RMK A01 T01540154  RH  100%=      5-min Rain = 0
KAM3 252045Z 33011KT 15/15 A3001 RMK A01 T01540154  RH  100%=      5-min Rain = 0
KAM3 252046Z 30012G17KT 15/15 A3002 RMK A01 T01540154  RH  100%=      5-min Rain = 0
KAM3 252047Z 30013KT 16/16 A3002 RMK A01 T01550155  RH  100%=      5-min Rain = 0
KAM3 252048Z 29015G21KT 16/16 A3003 RMK A01 T01550155  RH  100%=      5-min Rain = 0
KAM3 252049Z 29021KT 16/16 A3004 RMK A01 T01560156  RH  100%=      5-min Rain = 0.01
KAM3 252050Z 28015KT 16/16 A3004 RMK A01 T01560157  RH  100%=      5-min Rain = 0
KAM3 252051Z 28014KT 16/16 A3005 RMK A01 T01570157  RH  100%=      5-min Rain = 0
KAM3 252052Z 28017KT 16/16 A3004 RMK A01 T01570157  RH  100%=      5-min Rain = 0.01
KAM3 252053Z 28017G22KT 16/16 A3003 RMK A01 T01560156  RH  100%=      5-min Rain = 0.01
KAM3 252054Z 29020KT 16/16 A3002 RMK A01 T01560156  RH  100%=      5-min Rain = 0
KAM3 252055Z 29020G25KT 16/16 A3001 RMK A01 T01550155  RH  100%=      5-min Rain = 0.01
KAM3 252056Z 29019KT 15/15 A30 RMK A01 T01540154  RH  100%=      5-min Rain = 0.01
KAM3 252057Z 30017KT 15/15 A30 RMK A01 T01530153  RH  100%=      5-min Rain = 0
KAM3 252058Z 30015KT 15/15 A30 RMK A01 T01520153  RH  100%=      5-min Rain = 0
KAM3 252059Z 30010KT 15/15 A30 RMK A01 T01520153  RH  100%=      5-min Rain = 0
KAM3 252100Z 31012KT 15/15 A30 RMK A01 T01520152  RH  100%=      5-min Rain = 0
KAM3 252101Z 30011KT 15/15 A30 RMK A01 T01520152  RH  100%=      5-min Rain = 0
KAM3 252102Z 30011KT 15/15 A30 RMK A01 T01520152  RH  100%=      5-min Rain = 0
KAM3 252103Z 30009KT 15/15 A3001 RMK A01 T01520152  RH  100%=      5-min Rain = 0
KAM3 252104Z 30008KT 15/15 A3001 RMK A01 T01520152  RH  100%=      5-min Rain = 0.01
KAM3 252105Z 29008KT 15/15 A3001 RMK A01 T01520152  RH  100%=      5-min Rain = 0
KAM3 252106Z 30007KT 15/15 A30 RMK A01 T01520152  RH  100%=      5-min Rain = 0
KAM3 252107Z 31006KT 15/15 A30 RMK A01 T01510152  RH  100%=      5-min Rain = 0.01
KAM3 252108Z 31006KT 15/15 A30 RMK A01 T01510152  RH  100%=      5-min Rain = 0
KAM3 252109Z 32004KT 15/15 A30 RMK A01 T01510151  RH  100%=      5-min Rain = 0.01
KAM3 252110Z 34003KT 15/15 A2999 RMK A01 T01510151  RH  100%=      5-min Rain = 0.01
KAM3 252111Z 35004KT 15/15 A2999 RMK A01 T01500151  RH  100%=      5-min Rain = 0.01
KAM3 252112Z 01005KT 15/15 A2999 RMK A01 T01500151  RH  100%=      5-min Rain = 0
KAM3 252113Z 02005KT 15/15 A2998 RMK A01 T01510151  RH  100%=      5-min Rain = 0.01
KAM3 252114Z 03004KT 15/15 A2998 RMK A01 T01510151  RH  100%=      5-min Rain = 0.01
KAM3 252115Z 02004KT 15/15 A2999 RMK A01 T01500151  RH  100%=      5-min Rain = 0.01
KAM3 252116Z 33005KT 15/15 A2999 RMK A01 T01500150  RH  100%=      5-min Rain = 0
KAM3 252117Z 31005KT 15/15 A30 RMK A01 T01500150  RH  100%=      5-min Rain = 0
KAM3 252118Z 31003KT 15/15 A30 RMK A01 T01500150  RH  100%=      5-min Rain = 0
KAM3 252119Z 33002KT 15/15 A2999 RMK A01 T01510151  RH  100%=      5-min Rain = 0.01
KAM3 252120Z 35002KT 15/15 A2999 RMK A01 T01510151  RH  100%=      5-min Rain = 0
KAM3 252121Z 00003KT 15/15 A2999 RMK A01 T01510151  RH  100%=      5-min Rain = 0.01
KAM3 252122Z 00002KT 15/15 A2998 RMK A01 T01500151  RH  100%=      5-min Rain = 0.01
KAM3 252123Z 01000KT 15/15 A2998 RMK A01 T01500151  RH  100%=      5-min Rain = 0.02
KAM3 252124Z 07001KT 15/15 A2998 RMK A01 T01510151  RH  100%=      5-min Rain = 0
KAM3 252125Z 11002KT 15/15 A2997 RMK A01 T01510151  RH  100%=      5-min Rain = 0.01
KAM3 252126Z 12002KT 15/15 A2997 RMK A01 T01500151  RH  100%=      5-min Rain = 0.01
KAM3 252127Z 11004KT 15/15 A2996 RMK A01 T01510151  RH  100%=      5-min Rain = 0
KAM3 252128Z 11006KT 15/15 A2996 RMK A01 T01510151  RH  100%=      5-min Rain = 0
KAM3 252129Z 12006KT 15/15 A2996 RMK A01 T01510151  RH  100%=      5-min Rain = 0
KAM3 252130Z 12006KT 15/15 A2996 RMK A01 T01510151  RH  100%=      5-min Rain = 0.01
KAM3 252131Z 13007KT 15/15 A2996 RMK A01 T01520152  RH  100%=      5-min Rain = 0
KAM3 252132Z 12006KT 15/15 A2995 RMK A01 T01530153  RH  100%=      5-min Rain = 0
KAM3 252133Z 11006KT 15/15 A2995 RMK A01 T01530153  RH  100%=      5-min Rain = 0
KAM3 252134Z 12006KT 15/15 A2995 RMK A01 T01540154  RH  100%=      5-min Rain = 0
KAM3 252135Z 13007KT 16/16 A2995 RMK A01 T01550155  RH  100%=      5-min Rain = 0
KAM3 252136Z 13008KT 16/16 A2995 RMK A01 T01550156  RH  100%=      5-min Rain = 0
KAM3 252137Z 12008KT 16/16 A2995 RMK A01 T01560156  RH  100%=      5-min Rain = 0
KAM3 252138Z 12009KT 16/16 A2994 RMK A01 T01570157  RH  100%=      5-min Rain = 0
KAM3 252139Z 13008KT 16/16 A2994 RMK A01 T01580158  RH  100%=      5-min Rain = 0
KAM3 252140Z 13009KT 16/16 A2994 RMK A01 T01600160  RH  100%=      5-min Rain = 0
KAM3 252141Z 13010KT 16/16 A2994 RMK A01 T01620162  RH  100%=      5-min Rain = 0
KAM3 252142Z 13011KT 17/17 A2994 RMK A01 T01650165  RH  100%=      5-min Rain = 0
KAM3 252143Z 13013KT 17/17 A2994 RMK A01 T01660166  RH  100%=      5-min Rain = 0
KAM3 252144Z 14012KT 17/17 A2994 RMK A01 T01670167  RH  100%=      5-min Rain = 0
KAM3 252145Z 15011KT 17/17 A2994 RMK A01 T01700170  RH  100%=      5-min Rain = 0
KAM3 252146Z 15013KT 17/17 A2994 RMK A01 T01740174  RH  100%=      5-min Rain = 0
KAM3 252147Z 14014KT 18/18 A2994 RMK A01 T01760176  RH  100%=      5-min Rain = 0
KAM3 252148Z 13013KT 18/18 A2994 RMK A01 T01780179  RH  100%=      5-min Rain = 0
KAM3 252149Z 12014KT 18/18 A2993 RMK A01 T01810181  RH  100%=      5-min Rain = 0
KAM3 252150Z 14012KT 18/18 A2993 RMK A01 T01820182  RH  100%=      5-min Rain = 0
KAM3 252151Z 14012KT 18/18 A2992 RMK A01 T01820183  RH  100%=      5-min Rain = 0
KAM3 252152Z 15011KT 18/18 A2992 RMK A01 T01830183  RH  100%=      5-min Rain = 0
KAM3 252153Z 15011KT 18/19 A2992 RMK A01 T01840185  RH  100%=      5-min Rain = 0
KAM3 252154Z 15012KT 19/19 A2992 RMK A01 T01870187  RH  100%=      5-min Rain = 0
KAM3 252155Z 15011KT 19/19 A2992 RMK A01 T01890189  RH  100%=      5-min Rain = 0
KAM3 252156Z 15012KT 19/19 A2992 RMK A01 T01920192  RH  100%=      5-min Rain = 0
KAM3 252157Z 15013KT 19/19 A2992 RMK A01 T01940194  RH  100%=      5-min Rain = 0
KAM3 252158Z 15012KT 20/20 A2992 RMK A01 T01950195  RH  100%=      5-min Rain = 0
KAM3 252159Z 16013KT 20/20 A2992 RMK A01 T01970197  RH  100%=      5-min Rain = 0
KAM3 252200Z 16013KT 20/20 A2992 RMK A01 T01990199  RH  100%=      5-min Rain = 0
KAM3 252201Z 16016KT 20/20 A2992 RMK A01 T01990197  RH  099%=      5-min Rain = 0
KAM3 252202Z 16014KT 20/20 A2992 RMK A01 T01990197  RH  099%=      5-min Rain = 0
KAM3 252203Z 15016KT 20/19 A2992 RMK A01 T01990192  RH  096%=      5-min Rain = 0
KAM3 252204Z 16012KT 20/19 A2992 RMK A01 T01990190  RH  094%=      5-min Rain = 0
KAM3 252205Z 16010KT 20/20 A2992 RMK A01 T02000197  RH  098%=      5-min Rain = 0
KAM3 252206Z 16009KT 20/20 A2992 RMK A01 T02020200  RH  099%=      5-min Rain = 0
KAM3 252207Z 15012KT 20/19 A2992 RMK A01 T02030193  RH  094%=      5-min Rain = 0
KAM3 252208Z 15011KT 20/19 A2992 RMK A01 T02040193  RH  093%=      5-min Rain = 0
KAM3 252209Z 16011KT 21/19 A2992 RMK A01 T02050194  RH  094%=      5-min Rain = 0
KAM3 252210Z 16013KT 21/20 A2993 RMK A01 T02060196  RH  094%=      5-min Rain = 0
KAM3 252211Z 16008KT 21/20 A2992 RMK A01 T02060199  RH  095%=      5-min Rain = 0
KAM3 252212Z 15011KT 21/20 A2993 RMK A01 T02070201  RH  097%=      5-min Rain = 0
KAM3 252213Z 14011KT 21/20 A2993 RMK A01 T02080200  RH  095%=      5-min Rain = 0
KAM3 252214Z 14009KT 21/20 A2993 RMK A01 T02080202  RH  096%=      5-min Rain = 0
KAM3 252215Z 15011KT 21/20 A2993 RMK A01 T02090201  RH  095%=      5-min Rain = 0
KAM3 252216Z 15009KT 21/19 A2993 RMK A01 T02090192  RH  090%=      5-min Rain = 0
KAM3 252217Z 16010KT 21/20 A2993 RMK A01 T02080200  RH  095%=      5-min Rain = 0
KAM3 252218Z 16010KT 21/20 A2993 RMK A01 T02090196  RH  092%=      5-min Rain = 0
KAM3 252219Z 15013KT 21/18 A2994 RMK A01 T02110180  RH  083%=      5-min Rain = 0
KAM3 252220Z 16011KT 21/17 A2994 RMK A01 T02110171  RH  078%=      5-min Rain = 0
KAM3 252221Z 14011KT 21/18 A2994 RMK A01 T02110177  RH  081%=      5-min Rain = 0
KAM3 252222Z 14010KT 21/18 A2994 RMK A01 T02100179  RH  082%=      5-min Rain = 0
KAM3 252223Z 16010KT 21/18 A2993 RMK A01 T02110180  RH  082%=      5-min Rain = 0
KAM3 252224Z 15008KT 21/19 A2993 RMK A01 T02110189  RH  087%=      5-min Rain = 0
KAM3 252225Z 14012KT 21/18 A2993 RMK A01 T02140180  RH  081%=      5-min Rain = 0
KAM3 252226Z 15012KT 22/17 A2993 RMK A01 T02150174  RH  077%=      5-min Rain = 0
KAM3 252227Z 16011KT 22/18 A2993 RMK A01 T02150175  RH  078%=      5-min Rain = 0
KAM3 252228Z 15010KT 21/18 A2993 RMK A01 T02140176  RH  079%=      5-min Rain = 0
KAM3 252229Z 14009KT 22/18 A2993 RMK A01 T02150176  RH  079%=      5-min Rain = 0
KAM3 252230Z 14009KT 22/19 A2993 RMK A01 T02160185  RH  083%=      5-min Rain = 0
KAM3 252231Z 14011KT 22/18 A2993 RMK A01 T02170182  RH  080%=      5-min Rain = 0
KAM3 252232Z 15013KT 22/18 A2993 RMK A01 T02180184  RH  081%=      5-min Rain = 0
KAM3 252233Z 14013KT 22/18 A2993 RMK A01 T02180178  RH  078%=      5-min Rain = 0
KAM3 252234Z 14012KT 22/18 A2992 RMK A01 T02170178  RH  078%=      5-min Rain = 0
KAM3 252235Z 14011KT 22/18 A2992 RMK A01 T02170180  RH  079%=      5-min Rain = 0
KAM3 252236Z 14010G16KT 22/19 A2992 RMK A01 T02170185  RH  082%=      5-min Rain = 0
KAM3 252237Z 15014KT 22/18 A2992 RMK A01 T02180178  RH  078%=      5-min Rain = 0
KAM3 252238Z 15016KT 22/18 A2992 RMK A01 T02180177  RH  078%=      5-min Rain = 0
KAM3 252239Z 15014KT 22/18 A2992 RMK A01 T02170177  RH  078%=      5-min Rain = 0
KAM3 252240Z 16012KT 22/18 A2992 RMK A01 T02160177  RH  079%=      5-min Rain = 0
KAM3 252241Z 15012KT 22/18 A2992 RMK A01 T02160179  RH  080%=      5-min Rain = 0
KAM3 252242Z 13013KT 22/18 A2992 RMK A01 T02160180  RH  080%=      5-min Rain = 0
KAM3 252243Z 14012KT 22/18 A2992 RMK A01 T02160181  RH  081%=      5-min Rain = 0
KAM3 252244Z 12014KT 22/18 A2992 RMK A01 T02150181  RH  081%=      5-min Rain = 0
KAM3 252245Z 12012KT 21/18 A2992 RMK A01 T02130181  RH  082%=      5-min Rain = 0
KAM3 252246Z 12010KT 21/18 A2992 RMK A01 T02110183  RH  084%=      5-min Rain = 0
KAM3 252247Z 12011KT 21/18 A2992 RMK A01 T02100184  RH  085%=      5-min Rain = 0
KAM3 252248Z 12011KT 21/18 A2992 RMK A01 T02100181  RH  084%=      5-min Rain = 0
KAM3 252249Z 13014KT 21/18 A2992 RMK A01 T02090181  RH  084%=      5-min Rain = 0
KAM3 252250Z 13016KT 21/18 A2992 RMK A01 T02080178  RH  083%=      5-min Rain = 0
KAM3 252251Z 14014KT 21/18 A2992 RMK A01 T02070177  RH  083%=      5-min Rain = 0
KAM3 252252Z 14013KT 21/18 A2992 RMK A01 T02070179  RH  084%=      5-min Rain = 0
KAM3 252253Z 14015KT 21/18 A2992 RMK A01 T02070179  RH  084%=      5-min Rain = 0
KAM3 252254Z 14013G18KT 21/18 A2992 RMK A01 T02070179  RH  084%=      5-min Rain = 0
KAM3 252255Z 14013KT 21/18 A2992 RMK A01 T02070183  RH  086%=      5-min Rain = 0
KAM3 252256Z 13014KT 21/18 A2992 RMK A01 T02080183  RH  085%=      5-min Rain = 0
KAM3 252257Z 14013KT 21/18 A2992 RMK A01 T02090184  RH  086%=      5-min Rain = 0
KAM3 252258Z 14014KT 21/19 A2992 RMK A01 T02100186  RH  086%=      5-min Rain = 0
KAM3 252259Z 14015KT 21/18 A2992 RMK A01 T02100181  RH  084%=      5-min Rain = 0
KAM3 252300Z 14016KT 21/18 A2992 RMK A01 T02100181  RH  084%=      5-min Rain = 0
KAM3 252301Z 14015KT 21/18 A2992 RMK A01 T02090183  RH  085%=      5-min Rain = 0
KAM3 252302Z 14015KT 21/18 A2992 RMK A01 T02090179  RH  083%=      5-min Rain = 0
KAM3 252303Z 14014KT 21/18 A2992 RMK A01 T02090179  RH  083%=      5-min Rain = 0
KAM3 252304Z 14013KT 21/18 A2992 RMK A01 T02090180  RH  084%=      5-min Rain = 0
KAM3 252305Z 14015KT 21/18 A2991 RMK A01 T02090179  RH  083%=      5-min Rain = 0
KAM3 252306Z 14014KT 21/18 A2992 RMK A01 T02090179  RH  083%=      5-min Rain = 0
KAM3 252307Z 13014KT 21/18 A2992 RMK A01 T02100179  RH  083%=      5-min Rain = 0
KAM3 252308Z 12014KT 21/18 A2992 RMK A01 T02110179  RH  082%=      5-min Rain = 0
KAM3 252309Z 12015KT 21/18 A2991 RMK A01 T02110179  RH  082%=      5-min Rain = 0
KAM3 252310Z 13013KT 21/18 A2991 RMK A01 T02110179  RH  082%=      5-min Rain = 0
KAM3 252311Z 13014KT 21/18 A2991 RMK A01 T02100179  RH  082%=      5-min Rain = 0
KAM3 252312Z 13013KT 21/18 A2991 RMK A01 T02100178  RH  082%=      5-min Rain = 0
KAM3 252313Z 13012KT 21/18 A2991 RMK A01 T02110180  RH  082%=      5-min Rain = 0
KAM3 252314Z 14014KT 21/18 A2991 RMK A01 T02120177  RH  081%=      5-min Rain = 0
KAM3 252315Z 13012KT 21/17 A2992 RMK A01 T02120173  RH  078%=      5-min Rain = 0
KAM3 252316Z 14012KT 21/18 A2992 RMK A01 T02120176  RH  080%=      5-min Rain = 0
KAM3 252317Z 13014KT 21/18 A2991 RMK A01 T02130176  RH  079%=      5-min Rain = 0
KAM3 252318Z 13014KT 21/18 A2991 RMK A01 T02140175  RH  079%=      5-min Rain = 0
KAM3 252319Z 14013KT 21/18 A2991 RMK A01 T02130175  RH  079%=      5-min Rain = 0
KAM3 252320Z 14011G16KT 21/18 A2991 RMK A01 T02130177  RH  080%=      5-min Rain = 0
KAM3 252321Z 14011KT 21/17 A2991 RMK A01 T02130173  RH  078%=      5-min Rain = 0
KAM3 252322Z 13009KT 21/18 A2991 RMK A01 T02130176  RH  079%=      5-min Rain = 0
KAM3 252323Z 13009KT 21/18 A2991 RMK A01 T02130182  RH  082%=      5-min Rain = 0
KAM3 252324Z 13010KT 21/18 A2991 RMK A01 T02140183  RH  083%=      5-min Rain = 0
KAM3 252325Z 15011KT 21/17 A299 RMK A01 T02140172  RH  077%=      5-min Rain = 0
KAM3 252326Z 14011KT 21/17 A299 RMK A01 T02140167  RH  075%=      5-min Rain = 0
KAM3 252327Z 14011KT 21/17 A299 RMK A01 T02140170  RH  076%=      5-min Rain = 0
KAM3 252328Z 13012KT 21/17 A2991 RMK A01 T02130169  RH  076%=      5-min Rain = 0
KAM3 252329Z 13010KT 21/17 A2991 RMK A01 T02130172  RH  077%=      5-min Rain = 0
KAM3 252330Z 13011G16KT 21/17 A2991 RMK A01 T02130174  RH  078%=      5-min Rain = 0
KAM3 252331Z 13012KT 21/17 A2991 RMK A01 T02130168  RH  076%=      5-min Rain = 0
KAM3 252332Z 14012KT 21/17 A2991 RMK A01 T02130171  RH  077%=      5-min Rain = 0
KAM3 252333Z 13012KT 21/17 A2991 RMK A01 T02130173  RH  078%=      5-min Rain = 0
KAM3 252334Z 13009KT 21/18 A2991 RMK A01 T02130175  RH  079%=      5-min Rain = 0
KAM3 252335Z 13010KT 21/18 A2991 RMK A01 T02130176  RH  079%=      5-min Rain = 0
KAM3 252336Z 14011KT 21/17 A2991 RMK A01 T02140173  RH  078%=      5-min Rain = 0
KAM3 252337Z 14012KT 21/17 A2992 RMK A01 T02140171  RH  076%=      5-min Rain = 0
KAM3 252338Z 14014KT 21/17 A2992 RMK A01 T02140169  RH  076%=      5-min Rain = 0
KAM3 252339Z 14013KT 21/17 A2992 RMK A01 T02140168  RH  075%=      5-min Rain = 0
KAM3 252340Z 14014KT 21/17 A2992 RMK A01 T02130169  RH  076%=      5-min Rain = 0
KAM3 252341Z 13013KT 21/17 A2992 RMK A01 T02130166  RH  075%=      5-min Rain = 0
KAM3 252342Z 13014KT 21/17 A2992 RMK A01 T02130166  RH  075%=      5-min Rain = 0
KAM3 252343Z 14011KT 21/17 A2992 RMK A01 T02130168  RH  076%=      5-min Rain = 0
KAM3 252344Z 14013KT 21/17 A2992 RMK A01 T02130168  RH  076%=      5-min Rain = 0
KAM3 252345Z 13012KT 21/17 A2992 RMK A01 T02130168  RH  076%=      5-min Rain = 0
KAM3 252346Z 12011KT 21/17 A2992 RMK A01 T02120173  RH  079%=      5-min Rain = 0
KAM3 252347Z 12013KT 21/17 A2992 RMK A01 T02120172  RH  078%=      5-min Rain = 0
KAM3 252348Z 13010KT 21/17 A2992 RMK A01 T02110173  RH  079%=      5-min Rain = 0
KAM3 252349Z 14008G13KT 21/18 A2992 RMK A01 T02100177  RH  082%=      5-min Rain = 0
KAM3 252350Z 14013KT 21/17 A2992 RMK A01 T02110173  RH  079%=      5-min Rain = 0
KAM3 252351Z 13011KT 21/17 A2992 RMK A01 T02110172  RH  078%=      5-min Rain = 0
KAM3 252352Z 14012KT 21/17 A2992 RMK A01 T02100173  RH  079%=      5-min Rain = 0
KAM3 252353Z 14011KT 21/17 A2992 RMK A01 T02100172  RH  079%=      5-min Rain = 0
KAM3 252354Z 15009KT 21/18 A2991 RMK A01 T02090175  RH  081%=      5-min Rain = 0
KAM3 252355Z 15010KT 21/18 A2991 RMK A01 T02100175  RH  080%=      5-min Rain = 0
KAM3 252356Z 15007KT 21/18 A2991 RMK A01 T02110179  RH  082%=      5-min Rain = 0
KAM3 252357Z 15008KT 21/18 A2991 RMK A01 T02120177  RH  080%=      5-min Rain = 0
KAM3 252358Z 15008G13KT 21/18 A2991 RMK A01 T02130176  RH  079%=      5-min Rain = 0
KAM3 252359Z 15009KT 21/18 A2991 RMK A01 T02130178  RH  080%=      5-min Rain = 0
KAM3 260000Z 15010KT 21/18 A2991 RMK A01 T02140178  RH  080%=      5-min Rain = 0
KAM3 260001Z 15008KT 22/18 A2991 RMK A01 T02150180  RH  081%=      5-min Rain = 0
KAM3 260002Z 15010KT 22/18 A2991 RMK A01 T02160180  RH  080%=      5-min Rain = 0
KAM3 260003Z 16010KT 22/18 A2991 RMK A01 T02170178  RH  079%=      5-min Rain = 0
KAM3 260004Z 15012KT 22/18 A2991 RMK A01 T02170179  RH  079%=      5-min Rain = 0
KAM3 260005Z 16011KT 22/18 A2991 RMK A01 T02170179  RH  079%=      5-min Rain = 0
KAM3 260006Z 16012KT 22/18 A2991 RMK A01 T02180180  RH  079%=      5-min Rain = 0
KAM3 260007Z 16010KT 22/18 A2991 RMK A01 T02190180  RH  079%=      5-min Rain = 0
KAM3 260008Z 16010KT 22/18 A2991 RMK A01 T02200182  RH  079%=      5-min Rain = 0
KAM3 260009Z 16010KT 22/18 A2991 RMK A01 T02210183  RH  079%=      5-min Rain = 0
KAM3 260010Z 15015KT 22/18 A2991 RMK A01 T02210182  RH  078%=      5-min Rain = 0
KAM3 260011Z 15015KT 22/18 A2991 RMK A01 T02230182  RH  078%=      5-min Rain = 0
KAM3 260012Z 16014KT 22/18 A2991 RMK A01 T02240183  RH  077%=      5-min Rain = 0
KAM3 260013Z 15016G21KT 23/18 A2991 RMK A01 T02250182  RH  077%=      5-min Rain = 0
KAM3 260014Z 15017G22KT 23/18 A2991 RMK A01 T02260181  RH  076%=      5-min Rain = 0
KAM3 260015Z 15014KT 23/18 A2991 RMK A01 T02260181  RH  075%=      5-min Rain = 0
KAM3 260016Z 15018G25KT 23/18 A2991 RMK A01 T02270180  RH  075%=      5-min Rain = 0
KAM3 260017Z 15018G23KT 23/18 A2991 RMK A01 T02270177  RH  073%=      5-min Rain = 0
KAM3 260018Z 15020G25KT 23/17 A2991 RMK A01 T02270174  RH  072%=      5-min Rain = 0
KAM3 260019Z 15020G25KT 23/17 A2991 RMK A01 T02260174  RH  072%=      5-min Rain = 0
KAM3 260020Z 15018G23KT 23/17 A2991 RMK A01 T02260174  RH  073%=      5-min Rain = 0
KAM3 260021Z 15017KT 23/17 A299 RMK A01 T02260173  RH  072%=      5-min Rain = 0
KAM3 260022Z 15015KT 23/17 A299 RMK A01 T02250174  RH  073%=      5-min Rain = 0
KAM3 260023Z 14017KT 23/18 A299 RMK A01 T02250176  RH  074%=      5-min Rain = 0
KAM3 260024Z 15017KT 23/17 A299 RMK A01 T02250173  RH  073%=      5-min Rain = 0
KAM3 260025Z 15016G21KT 22/17 A299 RMK A01 T02240173  RH  073%=      5-min Rain = 0
KAM3 260026Z 15014KT 22/18 A299 RMK A01 T02240175  RH  074%=      5-min Rain = 0
KAM3 260027Z 15015KT 22/18 A299 RMK A01 T02230175  RH  074%=      5-min Rain = 0
KAM3 260028Z 16017G24KT 22/18 A299 RMK A01 T02230175  RH  074%=      5-min Rain = 0
KAM3 260029Z 15018KT 22/17 A299 RMK A01 T02230170  RH  072%=      5-min Rain = 0
KAM3 260030Z 15016KT 22/17 A299 RMK A01 T02230170  RH  072%=      5-min Rain = 0
KAM3 260031Z 16019G24KT 22/17 A299 RMK A01 T02220170  RH  072%=      5-min Rain = 0
KAM3 260032Z 15018KT 22/17 A299 RMK A01 T02220169  RH  072%=      5-min Rain = 0
KAM3 260033Z 16017KT 22/17 A299 RMK A01 T02220170  RH  072%=      5-min Rain = 0
KAM3 260034Z 16016KT 22/17 A299 RMK A01 T02220171  RH  073%=      5-min Rain = 0
KAM3 260035Z 15019KT 22/17 A299 RMK A01 T02220169  RH  072%=      5-min Rain = 0
KAM3 260036Z 16021G27KT 22/17 A299 RMK A01 T02210165  RH  071%=      5-min Rain = 0
KAM3 260037Z 16020KT 22/16 A2989 RMK A01 T02210164  RH  070%=      5-min Rain = 0
KAM3 260038Z 15018G23KT 22/16 A2989 RMK A01 T02210164  RH  070%=      5-min Rain = 0
KAM3 260039Z 15016G21KT 22/17 A2989 RMK A01 T02200166  RH  071%=      5-min Rain = 0
KAM3 260040Z 16015KT 22/17 A2989 RMK A01 T02190168  RH  072%=      5-min Rain = 0
KAM3 260041Z 16018KT 22/17 A2989 RMK A01 T02180165  RH  072%=      5-min Rain = 0
KAM3 260042Z 16018G25KT 22/16 A2989 RMK A01 T02180164  RH  071%=      5-min Rain = 0
KAM3 260043Z 16016G21KT 22/16 A2989 RMK A01 T02180163  RH  071%=      5-min Rain = 0
KAM3 260044Z 16017KT 22/17 A2989 RMK A01 T02170165  RH  072%=      5-min Rain = 0
KAM3 260045Z 16018KT 22/16 A2989 RMK A01 T02170164  RH  072%=      5-min Rain = 0
KAM3 260046Z 17018KT 22/16 A2989 RMK A01 T02170164  RH  072%=      5-min Rain = 0
KAM3 260047Z 16015G20KT 22/17 A2989 RMK A01 T02160166  RH  073%=      5-min Rain = 0
KAM3 260048Z 16020G25KT 22/17 A2989 RMK A01 T02160167  RH  073%=      5-min Rain = 0
KAM3 260049Z 17019G25KT 22/17 A2989 RMK A01 T02160167  RH  074%=      5-min Rain = 0
KAM3 260050Z 16017G23KT 22/17 A2989 RMK A01 T02160166  RH  073%=      5-min Rain = 0
KAM3 260051Z 17020G25KT 22/17 A2989 RMK A01 T02150167  RH  074%=      5-min Rain = 0
KAM3 260052Z 16019G26KT 22/17 A2989 RMK A01 T02150166  RH  074%=      5-min Rain = 0
KAM3 260053Z 17015KT 22/17 A2989 RMK A01 T02150167  RH  074%=      5-min Rain = 0
KAM3 260054Z 17017KT 22/17 A2989 RMK A01 T02150167  RH  074%=      5-min Rain = 0
KAM3 260055Z 17017G22KT 21/17 A2989 RMK A01 T02140167  RH  075%=      5-min Rain = 0
KAM3 260056Z 17018G23KT 21/17 A2989 RMK A01 T02140167  RH  075%=      5-min Rain = 0
KAM3 260057Z 16017KT 22/17 A2989 RMK A01 T02150167  RH  074%=      5-min Rain = 0
KAM3 260058Z 16020KT 21/17 A2988 RMK A01 T02140165  RH  073%=      5-min Rain = 0
KAM3 260059Z 16018G24KT 21/16 A2988 RMK A01 T02140163  RH  073%=      5-min Rain = 0
KAM3 260100Z 16019KT 21/16 A2988 RMK A01 T02140163  RH  072%=      5-min Rain = 0
KAM3 260101Z 17015KT 21/16 A2988 RMK A01 T02140163  RH  073%=      5-min Rain = 0
KAM3 260102Z 17013KT 21/16 A2988 RMK A01 T02140164  RH  073%=      5-min Rain = 0
KAM3 260103Z 16018G24KT 21/16 A2988 RMK A01 T02140164  RH  073%=      5-min Rain = 0
KAM3 260104Z 17019KT 21/16 A2988 RMK A01 T02140158  RH  070%=      5-min Rain = 0
KAM3 260105Z 16018KT 21/16 A2988 RMK A01 T02140157  RH  070%=      5-min Rain = 0
KAM3 260106Z 16017G22KT 21/16 A2988 RMK A01 T02140160  RH  071%=      5-min Rain = 0
KAM3 260107Z 16020G26KT 21/16 A2987 RMK A01 T02140159  RH  071%=      5-min Rain = 0
KAM3 260108Z 16015KT 21/16 A2988 RMK A01 T02140160  RH  071%=      5-min Rain = 0
KAM3 260109Z 16013KT 21/16 A2988 RMK A01 T02130161  RH  072%=      5-min Rain = 0
KAM3 260110Z 17015KT 21/16 A2988 RMK A01 T02120162  RH  073%=      5-min Rain = 0
KAM3 260111Z 17016KT 21/16 A2988 RMK A01 T02110162  RH  073%=      5-min Rain = 0
KAM3 260112Z 17018G23KT 21/16 A2988 RMK A01 T02110162  RH  074%=      5-min Rain = 0
KAM3 260113Z 17019KT 21/16 A2988 RMK A01 T02100162  RH  074%=      5-min Rain = 0
KAM3 260114Z 16021G26KT 21/16 A2988 RMK A01 T02110161  RH  073%=      5-min Rain = 0
KAM3 260115Z 16015KT 21/16 A2988 RMK A01 T02110162  RH  074%=      5-min Rain = 0
KAM3 260116Z 16014KT 21/16 A2988 RMK A01 T02100164  RH  075%=      5-min Rain = 0
KAM3 260117Z 16015KT 21/16 A2988 RMK A01 T02090164  RH  075%=      5-min Rain = 0
KAM3 260118Z 16016G21KT 21/16 A2988 RMK A01 T02080164  RH  076%=      5-min Rain = 0
KAM3 260119Z 16015G22KT 21/17 A2988 RMK A01 T02080165  RH  076%=      5-min Rain = 0
KAM3 260120Z 16018G24KT 21/17 A2988 RMK A01 T02070166  RH  077%=      5-min Rain = 0
KAM3 260121Z 16019KT 21/17 A2988 RMK A01 T02070165  RH  077%=      5-min Rain = 0
KAM3 260122Z 16018KT 21/17 A2988 RMK A01 T02070165  RH  077%=      5-min Rain = 0
KAM3 260123Z 16016G23KT 21/17 A2988 RMK A01 T02070165  RH  077%=      5-min Rain = 0
KAM3 260124Z 16018KT 21/17 A2988 RMK A01 T02060165  RH  077%=      5-min Rain = 0
KAM3 260125Z 17014KT 21/17 A2988 RMK A01 T02060166  RH  078%=      5-min Rain = 0
KAM3 260126Z 17016KT 21/17 A2988 RMK A01 T02050166  RH  078%=      5-min Rain = 0
KAM3 260127Z 16016KT 21/17 A2988 RMK A01 T02050165  RH  078%=      5-min Rain = 0
KAM3 260128Z 16016KT 21/17 A2988 RMK A01 T02050165  RH  078%=      5-min Rain = 0
KAM3 260129Z 16014KT 21/17 A2988 RMK A01 T02050166  RH  078%=      5-min Rain = 0
KAM3 260130Z 17017KT 20/17 A2988 RMK A01 T02040165  RH  078%=      5-min Rain = 0
KAM3 260131Z 17017KT 20/16 A2988 RMK A01 T02040164  RH  078%=      5-min Rain = 0
KAM3 260132Z 17018KT 20/16 A2988 RMK A01 T02040164  RH  078%=      5-min Rain = 0
KAM3 260133Z 16016KT 20/16 A2988 RMK A01 T02040164  RH  078%=      5-min Rain = 0
KAM3 260134Z 16017KT 20/16 A2988 RMK A01 T02040164  RH  078%=      5-min Rain = 0
KAM3 260135Z 16016KT 20/16 A2988 RMK A01 T02040164  RH  078%=      5-min Rain = 0
KAM3 260136Z 16016KT 20/16 A2988 RMK A01 T02040164  RH  078%=      5-min Rain = 0
KAM3 260137Z 17016KT 20/16 A2988 RMK A01 T02030164  RH  078%=      5-min Rain = 0
KAM3 260138Z 17016KT 20/16 A2988 RMK A01 T02030163  RH  078%=      5-min Rain = 0
KAM3 260139Z 16015KT 20/17 A2988 RMK A01 T02030165  RH  079%=      5-min Rain = 0
KAM3 260140Z 16015KT 20/17 A2989 RMK A01 T02020165  RH  079%=      5-min Rain = 0
KAM3 260141Z 16016KT 20/16 A2989 RMK A01 T02010164  RH  079%=      5-min Rain = 0
KAM3 260142Z 17015KT 20/16 A2988 RMK A01 T02010164  RH  079%=      5-min Rain = 0
KAM3 260143Z 17013KT 20/16 A2988 RMK A01 T02020164  RH  079%=      5-min Rain = 0
KAM3 260144Z 16015KT 20/16 A2988 RMK A01 T02010164  RH  079%=      5-min Rain = 0
KAM3 260145Z 16014KT 20/16 A2989 RMK A01 T02010163  RH  079%=      5-min Rain = 0
KAM3 260146Z 17012KT 20/16 A2989 RMK A01 T02010164  RH  079%=      5-min Rain = 0
KAM3 260147Z 16016KT 20/16 A2989 RMK A01 T02000164  RH  080%=      5-min Rain = 0
KAM3 260148Z 16015KT 20/16 A2989 RMK A01 T02000164  RH  080%=      5-min Rain = 0
KAM3 260149Z 16013KT 20/16 A2989 RMK A01 T01990164  RH  080%=      5-min Rain = 0
KAM3 260150Z 16013KT 20/17 A2989 RMK A01 T01990165  RH  081%=      5-min Rain = 0
KAM3 260151Z 16012KT 20/17 A2989 RMK A01 T01980165  RH  081%=      5-min Rain = 0
KAM3 260152Z 17014G19KT 20/17 A2989 RMK A01 T01970165  RH  082%=      5-min Rain = 0
KAM3 260153Z 16014KT 20/17 A2989 RMK A01 T01970165  RH  082%=      5-min Rain = 0
KAM3 260154Z 16013KT 20/17 A2989 RMK A01 T01970165  RH  082%=      5-min Rain = 0
KAM3 260155Z 17014KT 20/16 A2989 RMK A01 T01970164  RH  081%=      5-min Rain = 0
KAM3 260156Z 17016KT 20/16 A2989 RMK A01 T01970164  RH  082%=      5-min Rain = 0
KAM3 260157Z 17015KT 20/16 A2989 RMK A01 T01970163  RH  081%=      5-min Rain = 0
KAM3 260158Z 17013KT 20/16 A2989 RMK A01 T01970162  RH  080%=      5-min Rain = 0
KAM3 260159Z 17014KT 20/16 A2989 RMK A01 T01980163  RH  080%=      5-min Rain = 0
KAM3 260200Z 17013KT 20/16 A2989 RMK A01 T01980164  RH  081%=      5-min Rain = 0
KAM3 260201Z 17013KT 20/16 A2989 RMK A01 T01970163  RH  081%=      5-min Rain = 0
KAM3 260202Z 17013KT 20/16 A2989 RMK A01 T01960164  RH  082%=      5-min Rain = 0
KAM3 260203Z 17014KT 20/16 A2989 RMK A01 T01960164  RH  082%=      5-min Rain = 0
KAM3 260204Z 17014KT 20/16 A2989 RMK A01 T01950164  RH  082%=      5-min Rain = 0
KAM3 260205Z 17013KT 20/16 A2989 RMK A01 T01960164  RH  082%=      5-min Rain = 0
KAM3 260206Z 17013KT 20/16 A2989 RMK A01 T01960164  RH  082%=      5-min Rain = 0
KAM3 260207Z 17011KT 20/16 A2989 RMK A01 T01950164  RH  082%=      5-min Rain = 0
KAM3 260208Z 17012KT 20/16 A2989 RMK A01 T01950164  RH  082%=      5-min Rain = 0
KAM3 260209Z 17011KT 19/16 A2989 RMK A01 T01940164  RH  082%=      5-min Rain = 0
KAM3 260210Z 17012KT 20/16 A2989 RMK A01 T01950163  RH  082%=      5-min Rain = 0
KAM3 260211Z 17012KT 20/16 A2989 RMK A01 T01950162  RH  081%=      5-min Rain = 0
KAM3 260212Z 17013G18KT 20/16 A2989 RMK A01 T01950161  RH  081%=      5-min Rain = 0
KAM3 260213Z 17014KT 20/16 A2989 RMK A01 T01950159  RH  080%=      5-min Rain = 0
KAM3 260214Z 17012KT 20/16 A2989 RMK A01 T01960159  RH  079%=      5-min Rain = 0
KAM3 260215Z 17015KT 20/16 A2989 RMK A01 T01960159  RH  079%=      5-min Rain = 0
KAM3 260216Z 17015KT 20/16 A2989 RMK A01 T01960158  RH  079%=      5-min Rain = 0
KAM3 260217Z 16014KT 20/16 A299 RMK A01 T01960159  RH  079%=      5-min Rain = 0
KAM3 260218Z 16015KT 20/16 A299 RMK A01 T01960159  RH  079%=      5-min Rain = 0
KAM3 260219Z 17014KT 20/16 A299 RMK A01 T01960158  RH  079%=      5-min Rain = 0
KAM3 260220Z 18014KT 20/16 A2989 RMK A01 T01960157  RH  078%=      5-min Rain = 0
KAM3 260221Z 17014KT 20/16 A2989 RMK A01 T01970156  RH  077%=      5-min Rain = 0
KAM3 260222Z 18013KT 20/16 A2989 RMK A01 T01980156  RH  077%=      5-min Rain = 0
KAM3 260223Z 17013KT 20/16 A2989 RMK A01 T01980157  RH  077%=      5-min Rain = 0
KAM3 260224Z 17014KT 20/16 A2989 RMK A01 T01980157  RH  077%=      5-min Rain = 0
KAM3 260225Z 17014G19KT 20/16 A2989 RMK A01 T01980156  RH  077%=      5-min Rain = 0
KAM3 260226Z 17014G19KT 20/16 A2989 RMK A01 T01980156  RH  077%=      5-min Rain = 0
KAM3 260227Z 16015KT 20/16 A299 RMK A01 T01980156  RH  076%=      5-min Rain = 0
KAM3 260228Z 16014KT 20/16 A299 RMK A01 T01990156  RH  077%=      5-min Rain = 0
KAM3 260229Z 16013KT 20/16 A299 RMK A01 T01990157  RH  077%=      5-min Rain = 0
KAM3 260230Z 17012KT 20/16 A299 RMK A01 T01980157  RH  077%=      5-min Rain = 0
KAM3 260231Z 17013KT 20/16 A2989 RMK A01 T01980157  RH  077%=      5-min Rain = 0
KAM3 260232Z 17014KT 20/16 A2989 RMK A01 T01980157  RH  077%=      5-min Rain = 0
KAM3 260233Z 16013KT 20/16 A2989 RMK A01 T01980157  RH  077%=      5-min Rain = 0
KAM3 260234Z 16015KT 20/16 A2989 RMK A01 T01980158  RH  077%=      5-min Rain = 0
KAM3 260235Z 16014KT 20/16 A2989 RMK A01 T01980157  RH  077%=      5-min Rain = 0
KAM3 260236Z 16012KT 20/16 A2989 RMK A01 T01990157  RH  077%=      5-min Rain = 0
KAM3 260237Z 16011KT 20/16 A2989 RMK A01 T01990158  RH  077%=      5-min Rain = 0
KAM3 260238Z 16012KT 20/16 A2989 RMK A01 T01990160  RH  078%=      5-min Rain = 0
KAM3 260239Z 16011KT 20/16 A2989 RMK A01 T01980160  RH  078%=      5-min Rain = 0
KAM3 260240Z 16014KT 20/16 A2989 RMK A01 T01980160  RH  079%=      5-min Rain = 0
KAM3 260241Z 16011KT 20/16 A2989 RMK A01 T01980160  RH  079%=      5-min Rain = 0
KAM3 260242Z 17011KT 20/16 A2989 RMK A01 T01980161  RH  080%=      5-min Rain = 0
KAM3 260243Z 17012KT 20/16 A2989 RMK A01 T01970161  RH  080%=      5-min Rain = 0
KAM3 260244Z 16013G18KT 20/16 A2989 RMK A01 T01970162  RH  080%=      5-min Rain = 0
KAM3 260245Z 17013KT 20/16 A2989 RMK A01 T01970162  RH  080%=      5-min Rain = 0
KAM3 260246Z 17011KT 20/16 A2989 RMK A01 T01970163  RH  081%=      5-min Rain = 0
KAM3 260247Z 17012KT 20/16 A2989 RMK A01 T01960163  RH  081%=      5-min Rain = 0
KAM3 260248Z 17011KT 20/16 A2989 RMK A01 T01960164  RH  082%=      5-min Rain = 0
KAM3 260249Z 17012KT 20/16 A2989 RMK A01 T01950164  RH  082%=      5-min Rain = 0
KAM3 260250Z 17011KT 20/16 A2989 RMK A01 T01950164  RH  082%=      5-min Rain = 0
KAM3 260251Z 17010KT 20/17 A2989 RMK A01 T01950165  RH  082%=      5-min Rain = 0
KAM3 260252Z 16012KT 20/17 A2989 RMK A01 T01950165  RH  083%=      5-min Rain = 0
KAM3 260253Z 17011KT 20/17 A2989 RMK A01 T01950165  RH  083%=      5-min Rain = 0
KAM3 260254Z 16012KT 20/17 A2989 RMK A01 T01960165  RH  082%=      5-min Rain = 0
KAM3 260255Z 16011KT 20/17 A2989 RMK A01 T01960165  RH  082%=      5-min Rain = 0
KAM3 260256Z 17010KT 20/17 A2989 RMK A01 T01960166  RH  083%=      5-min Rain = 0
KAM3 260257Z 16011KT 20/17 A2989 RMK A01 T01950166  RH  083%=      5-min Rain = 0
KAM3 260258Z 17012KT 20/17 A2989 RMK A01 T01950167  RH  083%=      5-min Rain = 0
KAM3 260259Z 17011KT 20/17 A2989 RMK A01 T01960167  RH  084%=      5-min Rain = 0
KAM3 260300Z 17011KT 20/17 A2989 RMK A01 T01950168  RH  084%=      5-min Rain = 0
KAM3 260301Z 17010KT 20/17 A2989 RMK A01 T01950168  RH  084%=      5-min Rain = 0
KAM3 260302Z 17011KT 20/17 A299 RMK A01 T01950168  RH  085%=      5-min Rain = 0
KAM3 260303Z 17011KT 19/17 A299 RMK A01 T01940167  RH  084%=      5-min Rain = 0
KAM3 260304Z 17011KT 20/17 A299 RMK A01 T01950168  RH  084%=      5-min Rain = 0
KAM3 260305Z 17011KT 20/17 A299 RMK A01 T01960168  RH  084%=      5-min Rain = 0
KAM3 260306Z 17013KT 20/17 A299 RMK A01 T01950168  RH  084%=      5-min Rain = 0
KAM3 260307Z 17011KT 20/17 A299 RMK A01 T01960169  RH  084%=      5-min Rain = 0
KAM3 260308Z 17011KT 20/17 A299 RMK A01 T01960169  RH  085%=      5-min Rain = 0
KAM3 260309Z 17012KT 20/17 A299 RMK A01 T01960170  RH  085%=      5-min Rain = 0
KAM3 260310Z 17012KT 20/17 A299 RMK A01 T01960171  RH  085%=      5-min Rain = 0
KAM3 260311Z 17011KT 20/17 A299 RMK A01 T01950170  RH  085%=      5-min Rain = 0
KAM3 260312Z 17011KT 20/17 A299 RMK A01 T01950171  RH  086%=      5-min Rain = 0
KAM3 260313Z 17011KT 20/17 A299 RMK A01 T01950171  RH  086%=      5-min Rain = 0
KAM3 260314Z 17011KT 20/17 A299 RMK A01 T01950171  RH  086%=      5-min Rain = 0
KAM3 260315Z 17013KT 20/17 A299 RMK A01 T01950171  RH  086%=      5-min Rain = 0
KAM3 260316Z 17011KT 20/17 A299 RMK A01 T01950171  RH  086%=      5-min Rain = 0
KAM3 260317Z 17013KT 20/17 A299 RMK A01 T01950171  RH  086%=      5-min Rain = 0
KAM3 260318Z 17012KT 20/17 A299 RMK A01 T01960171  RH  085%=      5-min Rain = 0
KAM3 260319Z 17011KT 20/17 A299 RMK A01 T01960171  RH  085%=      5-min Rain = 0
KAM3 260320Z 17012KT 20/17 A299 RMK A01 T01960171  RH  085%=      5-min Rain = 0
KAM3 260321Z 17012KT 20/17 A299 RMK A01 T01960172  RH  086%=      5-min Rain = 0
KAM3 260322Z 17012KT 20/17 A299 RMK A01 T01960172  RH  086%=      5-min Rain = 0
KAM3 260323Z 17012KT 20/17 A299 RMK A01 T01960172  RH  086%=      5-min Rain = 0
KAM3 260324Z 17012KT 20/17 A299 RMK A01 T01960172  RH  086%=      5-min Rain = 0
KAM3 260325Z 16013KT 20/17 A299 RMK A01 T01970172  RH  085%=      5-min Rain = 0
KAM3 260326Z 17013KT 20/17 A299 RMK A01 T01970172  RH  085%=      5-min Rain = 0
KAM3 260327Z 17013KT 20/17 A299 RMK A01 T01980172  RH  085%=      5-min Rain = 0
KAM3 260328Z 17014KT 20/17 A299 RMK A01 T01990172  RH  084%=      5-min Rain = 0
KAM3 260329Z 17013G18KT 20/17 A299 RMK A01 T02000172  RH  084%=      5-min Rain = 0
KAM3 260330Z 17013KT 20/17 A299 RMK A01 T02000173  RH  084%=      5-min Rain = 0
KAM3 260331Z 16013KT 20/17 A299 RMK A01 T02000173  RH  084%=      5-min Rain = 0
KAM3 260332Z 16013G18KT 20/17 A299 RMK A01 T02010173  RH  084%=      5-min Rain = 0
KAM3 260333Z 16014KT 20/17 A299 RMK A01 T02010173  RH  084%=      5-min Rain = 0
KAM3 260334Z 16013KT 20/17 A299 RMK A01 T02020173  RH  084%=      5-min Rain = 0
KAM3 260335Z 16014KT 20/17 A2991 RMK A01 T02020174  RH  084%=      5-min Rain = 0
KAM3 260336Z 16014KT 20/18 A2991 RMK A01 T02020175  RH  084%=      5-min Rain = 0
KAM3 260337Z 16011KT 20/18 A2991 RMK A01 T02020175  RH  084%=      5-min Rain = 0
KAM3 260338Z 17012KT 20/18 A2991 RMK A01 T02020175  RH  085%=      5-min Rain = 0
KAM3 260339Z 17012KT 20/18 A2991 RMK A01 T02010175  RH  085%=      5-min Rain = 0
KAM3 260340Z 17013KT 20/18 A2991 RMK A01 T02010175  RH  085%=      5-min Rain = 0
KAM3 260341Z 17012KT 20/18 A2991 RMK A01 T02010175  RH  085%=      5-min Rain = 0
KAM3 260342Z 17011KT 20/18 A2991 RMK A01 T02010176  RH  086%=      5-min Rain = 0
KAM3 260343Z 17012KT 20/18 A2991 RMK A01 T02010178  RH  086%=      5-min Rain = 0
KAM3 260344Z 17013KT 20/18 A2991 RMK A01 T02000178  RH  087%=      5-min Rain = 0
KAM3 260345Z 16012G18KT 20/18 A2991 RMK A01 T02010179  RH  087%=      5-min Rain = 0
KAM3 260346Z 16012KT 20/18 A2991 RMK A01 T02000179  RH  088%=      5-min Rain = 0
KAM3 260347Z 16013KT 20/18 A2991 RMK A01 T02010181  RH  088%=      5-min Rain = 0
KAM3 260348Z 16016KT 20/18 A2991 RMK A01 T02010182  RH  089%=      5-min Rain = 0
KAM3 260349Z 17014KT 20/18 A2991 RMK A01 T02020184  RH  089%=      5-min Rain = 0
KAM3 260350Z 17014G20KT 20/18 A2991 RMK A01 T02020183  RH  089%=      5-min Rain = 0
KAM3 260351Z 16016KT 20/18 A2991 RMK A01 T02030183  RH  088%=      5-min Rain = 0
KAM3 260352Z 16015KT 20/18 A2991 RMK A01 T02030183  RH  088%=      5-min Rain = 0
KAM3 260353Z 16015KT 20/18 A2991 RMK A01 T02030183  RH  088%=      5-min Rain = 0
KAM3 260354Z 17014KT 20/18 A2991 RMK A01 T02030184  RH  089%=      5-min Rain = 0
KAM3 260355Z 17016KT 20/19 A2991 RMK A01 T02030185  RH  089%=      5-min Rain = 0
KAM3 260356Z 17015KT 20/18 A2991 RMK A01 T02020184  RH  090%=      5-min Rain = 0
KAM3 260357Z 17013KT 20/19 A2991 RMK A01 T02020185  RH  090%=      5-min Rain = 0
KAM3 260358Z 17013KT 20/19 A2991 RMK A01 T02010186  RH  091%=      5-min Rain = 0
KAM3 260359Z 16013KT 20/19 A2991 RMK A01 T02010187  RH  092%=      5-min Rain = 0
KAM3 260400Z 16015KT 20/19 A2991 RMK A01 T02000188  RH  093%=      5-min Rain = 0
KAM3 260401Z 16017KT 20/19 A2991 RMK A01 T02000188  RH  093%=      5-min Rain = 0
KAM3 260402Z 16015G20KT 20/19 A2991 RMK A01 T02000189  RH  093%=      5-min Rain = 0
KAM3 260403Z 17015KT 20/19 A2991 RMK A01 T02000189  RH  094%=      5-min Rain = 0
KAM3 260404Z 17015KT 20/19 A2991 RMK A01 T02000190  RH  094%=      5-min Rain = 0
KAM3 260405Z 17012KT 20/19 A2991 RMK A01 T02000191  RH  094%=      5-min Rain = 0
KAM3 260406Z 17014KT 20/19 A2991 RMK A01 T01990191  RH  095%=      5-min Rain = 0
KAM3 260407Z 17014KT 20/19 A2991 RMK A01 T01990192  RH  096%=      5-min Rain = 0
KAM3 260408Z 16015KT 20/19 A2991 RMK A01 T01990192  RH  096%=      5-min Rain = 0
KAM3 260409Z 17016G21KT 20/19 A2991 RMK A01 T01990193  RH  096%=      5-min Rain = 0
KAM3 260410Z 17016KT 20/19 A2991 RMK A01 T01990194  RH  097%=      5-min Rain = 0
KAM3 260411Z 17014KT 20/19 A2991 RMK A01 T01990193  RH  097%=      5-min Rain = 0
KAM3 260412Z 17017KT 20/19 A2991 RMK A01 T01990194  RH  097%=      5-min Rain = 0
KAM3 260413Z 17015KT 20/19 A2991 RMK A01 T01990194  RH  097%=      5-min Rain = 0
KAM3 260414Z 17016KT 20/19 A2991 RMK A01 T01990194  RH  097%=      5-min Rain = 0
KAM3 260415Z 17016KT 20/19 A2991 RMK A01 T01990194  RH  097%=      5-min Rain = 0
KAM3 260416Z 17016KT 20/20 A2991 RMK A01 T02000195  RH  097%=      5-min Rain = 0
KAM3 260417Z 17016KT 20/20 A2991 RMK A01 T02000195  RH  097%=      5-min Rain = 0
KAM3 260418Z 17018KT 20/20 A2992 RMK A01 T02000195  RH  097%=      5-min Rain = 0
KAM3 260419Z 17016KT 20/20 A2992 RMK A01 T02000195  RH  097%=      5-min Rain = 0
KAM3 260420Z 17016KT 20/20 A2992 RMK A01 T02000195  RH  097%=      5-min Rain = 0
KAM3 260421Z 17016KT 20/20 A2992 RMK A01 T02000195  RH  097%=      5-min Rain = 0
KAM3 260422Z 17014KT 20/20 A2992 RMK A01 T02000196  RH  098%=      5-min Rain = 0
KAM3 260423Z 17014KT 20/20 A2992 RMK A01 T02000197  RH  098%=      5-min Rain = 0
KAM3 260424Z 17016KT 20/20 A2992 RMK A01 T01990197  RH  098%=      5-min Rain = 0
KAM3 260425Z 17015G21KT 20/20 A2992 RMK A01 T01990197  RH  099%=      5-min Rain = 0
KAM3 260426Z 17016KT 20/20 A2992 RMK A01 T02000198  RH  099%=      5-min Rain = 0
KAM3 260427Z 17017KT 20/20 A2992 RMK A01 T02000197  RH  098%=      5-min Rain = 0
KAM3 260428Z 17016KT 20/20 A2992 RMK A01 T02000197  RH  098%=      5-min Rain = 0
KAM3 260429Z 17016KT 20/20 A2992 RMK A01 T02000197  RH  098%=      5-min Rain = 0
KAM3 260430Z 17017KT 20/20 A2992 RMK A01 T02000198  RH  098%=      5-min Rain = 0
KAM3 260431Z 17017KT 20/20 A2992 RMK A01 T02000197  RH  098%=      5-min Rain = 0
KAM3 260432Z 17019KT 20/20 A2992 RMK A01 T02010198  RH  098%=      5-min Rain = 0
KAM3 260433Z 17018KT 20/20 A2992 RMK A01 T02010197  RH  098%=      5-min Rain = 0
KAM3 260434Z 17018KT 20/20 A2992 RMK A01 T02020197  RH  097%=      5-min Rain = 0
KAM3 260435Z 17016KT 20/20 A2992 RMK A01 T02020198  RH  097%=      5-min Rain = 0
KAM3 260436Z 17016KT 20/20 A2992 RMK A01 T02020198  RH  098%=      5-min Rain = 0
KAM3 260437Z 17018KT 20/20 A2992 RMK A01 T02010198  RH  098%=      5-min Rain = 0
KAM3 260438Z 17017KT 20/20 A2992 RMK A01 T02020198  RH  098%=      5-min Rain = 0
KAM3 260439Z 16017KT 20/20 A2992 RMK A01 T02010198  RH  098%=      5-min Rain = 0
KAM3 260440Z 17018G23KT 20/20 A2992 RMK A01 T02010198  RH  098%=      5-min Rain = 0
KAM3 260441Z 17017KT 20/20 A2992 RMK A01 T02020198  RH  098%=      5-min Rain = 0
KAM3 260442Z 16016KT 20/20 A2992 RMK A01 T02020198  RH  098%=      5-min Rain = 0
KAM3 260443Z 17017KT 20/20 A2992 RMK A01 T02020199  RH  098%=      5-min Rain = 0
KAM3 260444Z 17015KT 20/20 A2992 RMK A01 T02020199  RH  098%=      5-min Rain = 0
KAM3 260445Z 16017KT 20/20 A2992 RMK A01 T02020199  RH  098%=      5-min Rain = 0
KAM3 260446Z 16017KT 20/20 A2992 RMK A01 T02010199  RH  099%=      5-min Rain = 0
KAM3 260447Z 17016G21KT 20/20 A2992 RMK A01 T02010200  RH  099%=      5-min Rain = 0
KAM3 260448Z 16017KT 20/20 A2992 RMK A01 T02010200  RH  099%=      5-min Rain = 0
KAM3 260449Z 16017KT 20/20 A2992 RMK A01 T02020199  RH  099%=      5-min Rain = 0
KAM3 260450Z 17016KT 20/20 A2992 RMK A01 T02020199  RH  099%=      5-min Rain = 0
KAM3 260451Z 16015KT 20/20 A2992 RMK A01 T02020200  RH  099%=      5-min Rain = 0
KAM3 260452Z 16017KT 20/20 A2992 RMK A01 T02010201  RH  100%=      5-min Rain = 0
KAM3 260453Z 17017KT 20/20 A2992 RMK A01 T02010201  RH  100%=      5-min Rain = 0
KAM3 260454Z 17016KT 20/20 A2992 RMK A01 T02010201  RH  099%=      5-min Rain = 0
KAM3 260455Z 16016KT 20/20 A2992 RMK A01 T02010201  RH  099%=      5-min Rain = 0
KAM3 260456Z 16017KT 20/20 A2992 RMK A01 T02010201  RH  100%=      5-min Rain = 0
KAM3 260457Z 16019G24KT 20/20 A2992 RMK A01 T02020201  RH  100%=      5-min Rain = 0
KAM3 260458Z 16018KT 20/20 A2992 RMK A01 T02020200  RH  099%=      5-min Rain = 0
KAM3 260459Z 17018G23KT 20/20 A2992 RMK A01 T02030200  RH  098%=      5-min Rain = 0

Page generated in 0.0325 seconds.